<?xml version="1.0" encoding="UTF-8" standalone="no" ?>
<gpx xmlns="http://www.topografix.com/GPX/1/1" xmlns:xsi="http://www.w3.org/2001/XMLSchema-instance" xsi:schemaLocation="http://www.topografix.com/GPX/1/1 http://www.topografix.com/GPX/1/1/gpx.xsd" version="1.1" creator="VisuGPX - https://www.visugpx.com">
  <metadata>
    <name>vtt champeix</name>
    <desc><![CDATA[rando en vtt départ de champeix]]></desc>
  </metadata>
  <trk>
    <name><![CDATA[vtt depart champeix]]></name>
    <desc><![CDATA[<h1>OruxMaps</h1><br /><hr align="center" width="480" style="height: 2px; width: 517px"/><h2>Nom: vtt depart champeix</h2><br /><p>Temps de départ: 07/18/2012 08:23</p><p>Temps d'arrivée: 07/18/2012 10:57</p><p>Distance: 26,6 km (02:33)</p><p>Temps déplacement: 02:11</p><p>Vitesse moyenne: 10,4 km/h</p><p>Vitesse moyenne: 12,2 km/h</p><p>Vitess Max.: 60,5 km/h</p><p>Altitude minimale: 503 m</p><p>Altitude maximale: 699 m</p><p>Vitesse d'élévation: 394,9 m/h</p><p>Vitesse de descente: -715,4 m/h</p><p>Gain Altitude: 543 m</p><p>Perte Altitude: -585 m</p><p>Temps d'élévation: 01:22</p><p>Temps de descente: 00:49</p><hr align="center" width="480" style="height: 2px; width: 517px"/>]]></desc>
    <trkseg>
      <trkpt lat="45.58538" lon="3.12701">
        <ele>556.6</ele>
        <time>2012-07-18T06:23:20Z</time>
      </trkpt>
      <trkpt lat="45.58564" lon="3.12735">
        <ele>530.8688</ele>
        <time>2012-07-18T06:23:22Z</time>
      </trkpt>
      <trkpt lat="45.58577" lon="3.12755">
        <ele>510.33347</ele>
        <time>2012-07-18T06:23:26Z</time>
      </trkpt>
      <trkpt lat="45.58597" lon="3.12751">
        <ele>511.7583</ele>
        <time>2012-07-18T06:26:19Z</time>
      </trkpt>
      <trkpt lat="45.58618" lon="3.1277">
        <ele>517.1079</ele>
        <time>2012-07-18T06:26:25Z</time>
      </trkpt>
      <trkpt lat="45.58639" lon="3.12783">
        <ele>519.9943</ele>
        <time>2012-07-18T06:26:29Z</time>
      </trkpt>
      <trkpt lat="45.58656" lon="3.12794">
        <ele>520.9607</ele>
        <time>2012-07-18T06:26:33Z</time>
      </trkpt>
      <trkpt lat="45.58674" lon="3.12806">
        <ele>520.26605</ele>
        <time>2012-07-18T06:26:37Z</time>
      </trkpt>
      <trkpt lat="45.587" lon="3.12818">
        <ele>520.45105</ele>
        <time>2012-07-18T06:26:42Z</time>
      </trkpt>
      <trkpt lat="45.58714" lon="3.12837">
        <ele>519.81116</ele>
        <time>2012-07-18T06:26:47Z</time>
      </trkpt>
      <trkpt lat="45.58726" lon="3.12817">
        <ele>516.78827</ele>
        <time>2012-07-18T06:26:51Z</time>
      </trkpt>
      <trkpt lat="45.58737" lon="3.12793">
        <ele>511.58725</ele>
        <time>2012-07-18T06:26:56Z</time>
      </trkpt>
      <trkpt lat="45.58737" lon="3.12766">
        <ele>507.12524</ele>
        <time>2012-07-18T06:27:04Z</time>
      </trkpt>
      <trkpt lat="45.5874" lon="3.12739">
        <ele>506.61703</ele>
        <time>2012-07-18T06:27:09Z</time>
      </trkpt>
      <trkpt lat="45.58755" lon="3.12723">
        <ele>510.50076</ele>
        <time>2012-07-18T06:27:14Z</time>
      </trkpt>
      <trkpt lat="45.5877" lon="3.12706">
        <ele>511.06018</ele>
        <time>2012-07-18T06:27:20Z</time>
      </trkpt>
      <trkpt lat="45.58786" lon="3.12689">
        <ele>509.87372</ele>
        <time>2012-07-18T06:27:26Z</time>
      </trkpt>
      <trkpt lat="45.588" lon="3.1267">
        <ele>507.65088</ele>
        <time>2012-07-18T06:27:31Z</time>
      </trkpt>
      <trkpt lat="45.58813" lon="3.12652">
        <ele>506.72</ele>
        <time>2012-07-18T06:27:36Z</time>
      </trkpt>
      <trkpt lat="45.58824" lon="3.1263">
        <ele>507.44916</ele>
        <time>2012-07-18T06:27:42Z</time>
      </trkpt>
      <trkpt lat="45.58829" lon="3.12602">
        <ele>508.40903</ele>
        <time>2012-07-18T06:27:48Z</time>
      </trkpt>
      <trkpt lat="45.58835" lon="3.12574">
        <ele>508.7801</ele>
        <time>2012-07-18T06:27:54Z</time>
      </trkpt>
      <trkpt lat="45.58841" lon="3.12549">
        <ele>509.02203</ele>
        <time>2012-07-18T06:28:00Z</time>
      </trkpt>
      <trkpt lat="45.58847" lon="3.12524">
        <ele>509.4091</ele>
        <time>2012-07-18T06:28:07Z</time>
      </trkpt>
      <trkpt lat="45.58855" lon="3.125">
        <ele>509.71182</ele>
        <time>2012-07-18T06:28:14Z</time>
      </trkpt>
      <trkpt lat="45.58867" lon="3.12477">
        <ele>509.64072</ele>
        <time>2012-07-18T06:28:20Z</time>
      </trkpt>
      <trkpt lat="45.58876" lon="3.12455">
        <ele>509.43622</ele>
        <time>2012-07-18T06:28:26Z</time>
      </trkpt>
      <trkpt lat="45.58873" lon="3.12426">
        <ele>510.11343</ele>
        <time>2012-07-18T06:28:32Z</time>
      </trkpt>
      <trkpt lat="45.58877" lon="3.12399">
        <ele>511.20013</ele>
        <time>2012-07-18T06:28:38Z</time>
      </trkpt>
      <trkpt lat="45.58883" lon="3.1237">
        <ele>513.1999</ele>
        <time>2012-07-18T06:28:44Z</time>
      </trkpt>
      <trkpt lat="45.58883" lon="3.12343">
        <ele>513.83</ele>
        <time>2012-07-18T06:28:50Z</time>
      </trkpt>
      <trkpt lat="45.58879" lon="3.12316">
        <ele>515.6376</ele>
        <time>2012-07-18T06:28:56Z</time>
      </trkpt>
      <trkpt lat="45.58875" lon="3.12289">
        <ele>516.637</ele>
        <time>2012-07-18T06:29:03Z</time>
      </trkpt>
      <trkpt lat="45.58875" lon="3.12256">
        <ele>518.808</ele>
        <time>2012-07-18T06:29:09Z</time>
      </trkpt>
      <trkpt lat="45.58877" lon="3.12229">
        <ele>518.9421</ele>
        <time>2012-07-18T06:29:15Z</time>
      </trkpt>
      <trkpt lat="45.58877" lon="3.12203">
        <ele>517.60474</ele>
        <time>2012-07-18T06:29:19Z</time>
      </trkpt>
      <trkpt lat="45.58875" lon="3.12177">
        <ele>518.1227</ele>
        <time>2012-07-18T06:29:24Z</time>
      </trkpt>
      <trkpt lat="45.58875" lon="3.1215">
        <ele>518.7918</ele>
        <time>2012-07-18T06:29:30Z</time>
      </trkpt>
      <trkpt lat="45.58874" lon="3.12123">
        <ele>520.9414</ele>
        <time>2012-07-18T06:29:49Z</time>
      </trkpt>
      <trkpt lat="45.58866" lon="3.12098">
        <ele>522.6838</ele>
        <time>2012-07-18T06:30:01Z</time>
      </trkpt>
      <trkpt lat="45.58861" lon="3.12069">
        <ele>522.7353</ele>
        <time>2012-07-18T06:30:06Z</time>
      </trkpt>
      <trkpt lat="45.58858" lon="3.12042">
        <ele>523.06104</ele>
        <time>2012-07-18T06:30:13Z</time>
      </trkpt>
      <trkpt lat="45.58855" lon="3.12014">
        <ele>524.0177</ele>
        <time>2012-07-18T06:30:21Z</time>
      </trkpt>
      <trkpt lat="45.58837" lon="3.12001">
        <ele>521.7697</ele>
        <time>2012-07-18T06:30:32Z</time>
      </trkpt>
      <trkpt lat="45.58838" lon="3.11976">
        <ele>521.78674</ele>
        <time>2012-07-18T06:31:05Z</time>
      </trkpt>
      <trkpt lat="45.58826" lon="3.11955">
        <ele>522.23987</ele>
        <time>2012-07-18T06:31:13Z</time>
      </trkpt>
      <trkpt lat="45.5881" lon="3.11939">
        <ele>522.77576</ele>
        <time>2012-07-18T06:31:23Z</time>
      </trkpt>
      <trkpt lat="45.58804" lon="3.11911">
        <ele>523.6008</ele>
        <time>2012-07-18T06:31:31Z</time>
      </trkpt>
      <trkpt lat="45.58798" lon="3.11883">
        <ele>523.88116</ele>
        <time>2012-07-18T06:31:36Z</time>
      </trkpt>
      <trkpt lat="45.58797" lon="3.11856">
        <ele>523.9757</ele>
        <time>2012-07-18T06:31:42Z</time>
      </trkpt>
      <trkpt lat="45.58803" lon="3.11829">
        <ele>522.1139</ele>
        <time>2012-07-18T06:31:47Z</time>
      </trkpt>
      <trkpt lat="45.58811" lon="3.11801">
        <ele>521.01697</ele>
        <time>2012-07-18T06:31:53Z</time>
      </trkpt>
      <trkpt lat="45.58818" lon="3.11775">
        <ele>520.7936</ele>
        <time>2012-07-18T06:31:58Z</time>
      </trkpt>
      <trkpt lat="45.58821" lon="3.11746">
        <ele>521.48987</ele>
        <time>2012-07-18T06:32:04Z</time>
      </trkpt>
      <trkpt lat="45.58821" lon="3.11718">
        <ele>522.2062</ele>
        <time>2012-07-18T06:32:09Z</time>
      </trkpt>
      <trkpt lat="45.58821" lon="3.11692">
        <ele>523.6865</ele>
        <time>2012-07-18T06:32:14Z</time>
      </trkpt>
      <trkpt lat="45.5882" lon="3.11662">
        <ele>523.54004</ele>
        <time>2012-07-18T06:32:19Z</time>
      </trkpt>
      <trkpt lat="45.58817" lon="3.11636">
        <ele>524.3157</ele>
        <time>2012-07-18T06:32:24Z</time>
      </trkpt>
      <trkpt lat="45.58808" lon="3.11607">
        <ele>525.7489</ele>
        <time>2012-07-18T06:32:30Z</time>
      </trkpt>
      <trkpt lat="45.58805" lon="3.11577">
        <ele>525.6195</ele>
        <time>2012-07-18T06:32:35Z</time>
      </trkpt>
      <trkpt lat="45.588" lon="3.1155">
        <ele>524.81714</ele>
        <time>2012-07-18T06:32:40Z</time>
      </trkpt>
      <trkpt lat="45.58802" lon="3.11521">
        <ele>525.9526</ele>
        <time>2012-07-18T06:32:46Z</time>
      </trkpt>
      <trkpt lat="45.58802" lon="3.11492">
        <ele>526.3405</ele>
        <time>2012-07-18T06:32:51Z</time>
      </trkpt>
      <trkpt lat="45.58807" lon="3.11463">
        <ele>526.8145</ele>
        <time>2012-07-18T06:32:56Z</time>
      </trkpt>
      <trkpt lat="45.58811" lon="3.11433">
        <ele>526.3177</ele>
        <time>2012-07-18T06:33:01Z</time>
      </trkpt>
      <trkpt lat="45.58812" lon="3.11401">
        <ele>526.0165</ele>
        <time>2012-07-18T06:33:06Z</time>
      </trkpt>
      <trkpt lat="45.58808" lon="3.11376">
        <ele>524.53296</ele>
        <time>2012-07-18T06:33:10Z</time>
      </trkpt>
      <trkpt lat="45.58799" lon="3.11353">
        <ele>526.8076</ele>
        <time>2012-07-18T06:33:15Z</time>
      </trkpt>
      <trkpt lat="45.58793" lon="3.11324">
        <ele>528.1136</ele>
        <time>2012-07-18T06:33:21Z</time>
      </trkpt>
      <trkpt lat="45.5879" lon="3.11297">
        <ele>528.29816</ele>
        <time>2012-07-18T06:33:26Z</time>
      </trkpt>
      <trkpt lat="45.58787" lon="3.1127">
        <ele>528.60876</ele>
        <time>2012-07-18T06:33:31Z</time>
      </trkpt>
      <trkpt lat="45.58784" lon="3.11242">
        <ele>528.9103</ele>
        <time>2012-07-18T06:33:36Z</time>
      </trkpt>
      <trkpt lat="45.58784" lon="3.11216">
        <ele>529.5493</ele>
        <time>2012-07-18T06:33:41Z</time>
      </trkpt>
      <trkpt lat="45.58786" lon="3.11191">
        <ele>529.5637</ele>
        <time>2012-07-18T06:33:46Z</time>
      </trkpt>
      <trkpt lat="45.58786" lon="3.11159">
        <ele>528.31885</ele>
        <time>2012-07-18T06:33:51Z</time>
      </trkpt>
      <trkpt lat="45.58784" lon="3.11132">
        <ele>527.55286</ele>
        <time>2012-07-18T06:33:55Z</time>
      </trkpt>
      <trkpt lat="45.58783" lon="3.11104">
        <ele>527.6152</ele>
        <time>2012-07-18T06:34:00Z</time>
      </trkpt>
      <trkpt lat="45.58784" lon="3.11077">
        <ele>531.4967</ele>
        <time>2012-07-18T06:34:06Z</time>
      </trkpt>
      <trkpt lat="45.58782" lon="3.1105">
        <ele>534.00586</ele>
        <time>2012-07-18T06:34:11Z</time>
      </trkpt>
      <trkpt lat="45.58781" lon="3.1102">
        <ele>534.1725</ele>
        <time>2012-07-18T06:34:16Z</time>
      </trkpt>
      <trkpt lat="45.58779" lon="3.10989">
        <ele>534.33167</ele>
        <time>2012-07-18T06:34:23Z</time>
      </trkpt>
      <trkpt lat="45.58779" lon="3.10962">
        <ele>534.8771</ele>
        <time>2012-07-18T06:34:28Z</time>
      </trkpt>
      <trkpt lat="45.58779" lon="3.10934">
        <ele>534.5319</ele>
        <time>2012-07-18T06:34:33Z</time>
      </trkpt>
      <trkpt lat="45.58778" lon="3.10905">
        <ele>532.815</ele>
        <time>2012-07-18T06:34:38Z</time>
      </trkpt>
      <trkpt lat="45.58784" lon="3.10877">
        <ele>530.69727</ele>
        <time>2012-07-18T06:34:43Z</time>
      </trkpt>
      <trkpt lat="45.58788" lon="3.10849">
        <ele>530.57935</ele>
        <time>2012-07-18T06:34:49Z</time>
      </trkpt>
      <trkpt lat="45.58785" lon="3.1082">
        <ele>529.74634</ele>
        <time>2012-07-18T06:34:55Z</time>
      </trkpt>
      <trkpt lat="45.58783" lon="3.1079">
        <ele>528.9814</ele>
        <time>2012-07-18T06:35:01Z</time>
      </trkpt>
      <trkpt lat="45.58779" lon="3.10761">
        <ele>528.6271</ele>
        <time>2012-07-18T06:35:07Z</time>
      </trkpt>
      <trkpt lat="45.58777" lon="3.10736">
        <ele>528.3923</ele>
        <time>2012-07-18T06:35:12Z</time>
      </trkpt>
      <trkpt lat="45.58774" lon="3.10707">
        <ele>528.3523</ele>
        <time>2012-07-18T06:35:18Z</time>
      </trkpt>
      <trkpt lat="45.58772" lon="3.10681">
        <ele>527.92035</ele>
        <time>2012-07-18T06:35:23Z</time>
      </trkpt>
      <trkpt lat="45.58769" lon="3.10651">
        <ele>528.69666</ele>
        <time>2012-07-18T06:35:29Z</time>
      </trkpt>
      <trkpt lat="45.58759" lon="3.10628">
        <ele>532.6442</ele>
        <time>2012-07-18T06:35:34Z</time>
      </trkpt>
      <trkpt lat="45.58752" lon="3.106">
        <ele>534.1281</ele>
        <time>2012-07-18T06:35:40Z</time>
      </trkpt>
      <trkpt lat="45.58745" lon="3.1057">
        <ele>535.3868</ele>
        <time>2012-07-18T06:35:46Z</time>
      </trkpt>
      <trkpt lat="45.58737" lon="3.10544">
        <ele>534.7489</ele>
        <time>2012-07-18T06:35:51Z</time>
      </trkpt>
      <trkpt lat="45.5873" lon="3.10518">
        <ele>534.9742</ele>
        <time>2012-07-18T06:35:56Z</time>
      </trkpt>
      <trkpt lat="45.58721" lon="3.10492">
        <ele>534.7342</ele>
        <time>2012-07-18T06:36:01Z</time>
      </trkpt>
      <trkpt lat="45.58708" lon="3.10471">
        <ele>534.4215</ele>
        <time>2012-07-18T06:36:05Z</time>
      </trkpt>
      <trkpt lat="45.58694" lon="3.10449">
        <ele>534.176</ele>
        <time>2012-07-18T06:36:11Z</time>
      </trkpt>
      <trkpt lat="45.58684" lon="3.10426">
        <ele>534.3685</ele>
        <time>2012-07-18T06:36:16Z</time>
      </trkpt>
      <trkpt lat="45.58672" lon="3.10402">
        <ele>533.9396</ele>
        <time>2012-07-18T06:36:22Z</time>
      </trkpt>
      <trkpt lat="45.58662" lon="3.10378">
        <ele>533.7581</ele>
        <time>2012-07-18T06:36:27Z</time>
      </trkpt>
      <trkpt lat="45.58654" lon="3.10353">
        <ele>533.8342</ele>
        <time>2012-07-18T06:36:32Z</time>
      </trkpt>
      <trkpt lat="45.58645" lon="3.10327">
        <ele>534.2083</ele>
        <time>2012-07-18T06:36:37Z</time>
      </trkpt>
      <trkpt lat="45.58633" lon="3.103">
        <ele>535.16376</ele>
        <time>2012-07-18T06:36:42Z</time>
      </trkpt>
      <trkpt lat="45.58622" lon="3.10274">
        <ele>535.3049</ele>
        <time>2012-07-18T06:36:48Z</time>
      </trkpt>
      <trkpt lat="45.58611" lon="3.10249">
        <ele>536.0331</ele>
        <time>2012-07-18T06:36:53Z</time>
      </trkpt>
      <trkpt lat="45.58603" lon="3.10223">
        <ele>536.8309</ele>
        <time>2012-07-18T06:36:57Z</time>
      </trkpt>
      <trkpt lat="45.58594" lon="3.10196">
        <ele>537.9793</ele>
        <time>2012-07-18T06:37:02Z</time>
      </trkpt>
      <trkpt lat="45.58588" lon="3.10168">
        <ele>539.1594</ele>
        <time>2012-07-18T06:37:07Z</time>
      </trkpt>
      <trkpt lat="45.58582" lon="3.10143">
        <ele>539.6318</ele>
        <time>2012-07-18T06:37:12Z</time>
      </trkpt>
      <trkpt lat="45.5858" lon="3.10112">
        <ele>539.61505</ele>
        <time>2012-07-18T06:37:17Z</time>
      </trkpt>
      <trkpt lat="45.58581" lon="3.10086">
        <ele>538.6333</ele>
        <time>2012-07-18T06:37:22Z</time>
      </trkpt>
      <trkpt lat="45.5858" lon="3.10054">
        <ele>537.4707</ele>
        <time>2012-07-18T06:37:27Z</time>
      </trkpt>
      <trkpt lat="45.58576" lon="3.10028">
        <ele>537.2946</ele>
        <time>2012-07-18T06:37:31Z</time>
      </trkpt>
      <trkpt lat="45.58568" lon="3.10004">
        <ele>537.537</ele>
        <time>2012-07-18T06:37:35Z</time>
      </trkpt>
      <trkpt lat="45.58557" lon="3.0998">
        <ele>537.7168</ele>
        <time>2012-07-18T06:37:40Z</time>
      </trkpt>
      <trkpt lat="45.58549" lon="3.09956">
        <ele>536.8612</ele>
        <time>2012-07-18T06:37:45Z</time>
      </trkpt>
      <trkpt lat="45.58542" lon="3.09933">
        <ele>537.6153</ele>
        <time>2012-07-18T06:37:50Z</time>
      </trkpt>
      <trkpt lat="45.5853" lon="3.09908">
        <ele>537.36194</ele>
        <time>2012-07-18T06:37:57Z</time>
      </trkpt>
      <trkpt lat="45.58517" lon="3.09885">
        <ele>537.57495</ele>
        <time>2012-07-18T06:38:03Z</time>
      </trkpt>
      <trkpt lat="45.58505" lon="3.09864">
        <ele>537.917</ele>
        <time>2012-07-18T06:38:09Z</time>
      </trkpt>
      <trkpt lat="45.58494" lon="3.09838">
        <ele>538.1517</ele>
        <time>2012-07-18T06:38:15Z</time>
      </trkpt>
      <trkpt lat="45.58483" lon="3.09813">
        <ele>538.2763</ele>
        <time>2012-07-18T06:38:21Z</time>
      </trkpt>
      <trkpt lat="45.58474" lon="3.0979">
        <ele>537.7405</ele>
        <time>2012-07-18T06:38:26Z</time>
      </trkpt>
      <trkpt lat="45.58464" lon="3.09764">
        <ele>537.6066</ele>
        <time>2012-07-18T06:38:32Z</time>
      </trkpt>
      <trkpt lat="45.58456" lon="3.09738">
        <ele>538.357</ele>
        <time>2012-07-18T06:38:38Z</time>
      </trkpt>
      <trkpt lat="45.58448" lon="3.09712">
        <ele>539.7555</ele>
        <time>2012-07-18T06:38:44Z</time>
      </trkpt>
      <trkpt lat="45.58445" lon="3.09685">
        <ele>540.76215</ele>
        <time>2012-07-18T06:38:50Z</time>
      </trkpt>
      <trkpt lat="45.58445" lon="3.09659">
        <ele>541.48987</ele>
        <time>2012-07-18T06:38:55Z</time>
      </trkpt>
      <trkpt lat="45.58445" lon="3.09632">
        <ele>541.75287</ele>
        <time>2012-07-18T06:39:00Z</time>
      </trkpt>
      <trkpt lat="45.58445" lon="3.09605">
        <ele>541.72925</ele>
        <time>2012-07-18T06:39:05Z</time>
      </trkpt>
      <trkpt lat="45.58445" lon="3.09578">
        <ele>541.8107</ele>
        <time>2012-07-18T06:39:10Z</time>
      </trkpt>
      <trkpt lat="45.58445" lon="3.09551">
        <ele>542.48096</ele>
        <time>2012-07-18T06:39:15Z</time>
      </trkpt>
      <trkpt lat="45.58445" lon="3.09524">
        <ele>543.2233</ele>
        <time>2012-07-18T06:39:20Z</time>
      </trkpt>
      <trkpt lat="45.58441" lon="3.09494">
        <ele>542.79785</ele>
        <time>2012-07-18T06:39:25Z</time>
      </trkpt>
      <trkpt lat="45.58433" lon="3.09469">
        <ele>543.1247</ele>
        <time>2012-07-18T06:39:29Z</time>
      </trkpt>
      <trkpt lat="45.58426" lon="3.09446">
        <ele>544.1454</ele>
        <time>2012-07-18T06:39:34Z</time>
      </trkpt>
      <trkpt lat="45.58426" lon="3.09418">
        <ele>545.1508</ele>
        <time>2012-07-18T06:39:39Z</time>
      </trkpt>
      <trkpt lat="45.58429" lon="3.09389">
        <ele>540.686</ele>
        <time>2012-07-18T06:39:44Z</time>
      </trkpt>
      <trkpt lat="45.58432" lon="3.09362">
        <ele>541.0054</ele>
        <time>2012-07-18T06:39:49Z</time>
      </trkpt>
      <trkpt lat="45.58435" lon="3.09336">
        <ele>542.3221</ele>
        <time>2012-07-18T06:39:54Z</time>
      </trkpt>
      <trkpt lat="45.58439" lon="3.09309">
        <ele>542.17944</ele>
        <time>2012-07-18T06:39:59Z</time>
      </trkpt>
      <trkpt lat="45.58443" lon="3.09282">
        <ele>541.7887</ele>
        <time>2012-07-18T06:40:05Z</time>
      </trkpt>
      <trkpt lat="45.58445" lon="3.09254">
        <ele>542.36707</ele>
        <time>2012-07-18T06:40:10Z</time>
      </trkpt>
      <trkpt lat="45.58445" lon="3.09226">
        <ele>542.4624</ele>
        <time>2012-07-18T06:40:15Z</time>
      </trkpt>
      <trkpt lat="45.58443" lon="3.09199">
        <ele>542.78796</ele>
        <time>2012-07-18T06:40:20Z</time>
      </trkpt>
      <trkpt lat="45.58442" lon="3.09172">
        <ele>541.8864</ele>
        <time>2012-07-18T06:40:25Z</time>
      </trkpt>
      <trkpt lat="45.58439" lon="3.09143">
        <ele>541.0456</ele>
        <time>2012-07-18T06:40:31Z</time>
      </trkpt>
      <trkpt lat="45.58439" lon="3.09114">
        <ele>541.7995</ele>
        <time>2012-07-18T06:40:38Z</time>
      </trkpt>
      <trkpt lat="45.58455" lon="3.09102">
        <ele>545.1271</ele>
        <time>2012-07-18T06:40:45Z</time>
      </trkpt>
      <trkpt lat="45.58475" lon="3.09096">
        <ele>547.0173</ele>
        <time>2012-07-18T06:40:51Z</time>
      </trkpt>
      <trkpt lat="45.58494" lon="3.09093">
        <ele>547.326</ele>
        <time>2012-07-18T06:41:00Z</time>
      </trkpt>
      <trkpt lat="45.58493" lon="3.09122">
        <ele>546.5734</ele>
        <time>2012-07-18T06:41:06Z</time>
      </trkpt>
      <trkpt lat="45.58504" lon="3.09148">
        <ele>544.8869</ele>
        <time>2012-07-18T06:41:10Z</time>
      </trkpt>
      <trkpt lat="45.5852" lon="3.0916">
        <ele>544.7851</ele>
        <time>2012-07-18T06:41:13Z</time>
      </trkpt>
      <trkpt lat="45.58535" lon="3.09181">
        <ele>544.65564</ele>
        <time>2012-07-18T06:41:18Z</time>
      </trkpt>
      <trkpt lat="45.58552" lon="3.09197">
        <ele>546.6001</ele>
        <time>2012-07-18T06:41:24Z</time>
      </trkpt>
      <trkpt lat="45.58572" lon="3.09206">
        <ele>547.5758</ele>
        <time>2012-07-18T06:41:32Z</time>
      </trkpt>
      <trkpt lat="45.58587" lon="3.09227">
        <ele>548.457</ele>
        <time>2012-07-18T06:41:38Z</time>
      </trkpt>
      <trkpt lat="45.58602" lon="3.09248">
        <ele>549.2121</ele>
        <time>2012-07-18T06:41:44Z</time>
      </trkpt>
      <trkpt lat="45.58617" lon="3.0927">
        <ele>548.73956</ele>
        <time>2012-07-18T06:41:50Z</time>
      </trkpt>
      <trkpt lat="45.58629" lon="3.0929">
        <ele>547.6411</ele>
        <time>2012-07-18T06:41:55Z</time>
      </trkpt>
      <trkpt lat="45.5864" lon="3.09313">
        <ele>546.01154</ele>
        <time>2012-07-18T06:42:00Z</time>
      </trkpt>
      <trkpt lat="45.58648" lon="3.0934">
        <ele>544.50574</ele>
        <time>2012-07-18T06:42:06Z</time>
      </trkpt>
      <trkpt lat="45.58654" lon="3.09366">
        <ele>543.41425</ele>
        <time>2012-07-18T06:42:11Z</time>
      </trkpt>
      <trkpt lat="45.58659" lon="3.09391">
        <ele>543.51544</ele>
        <time>2012-07-18T06:42:15Z</time>
      </trkpt>
      <trkpt lat="45.58664" lon="3.09422">
        <ele>544.6275</ele>
        <time>2012-07-18T06:42:20Z</time>
      </trkpt>
      <trkpt lat="45.58667" lon="3.09447">
        <ele>545.238</ele>
        <time>2012-07-18T06:42:24Z</time>
      </trkpt>
      <trkpt lat="45.58673" lon="3.09472">
        <ele>544.9972</ele>
        <time>2012-07-18T06:42:28Z</time>
      </trkpt>
      <trkpt lat="45.58691" lon="3.09486">
        <ele>545.12946</ele>
        <time>2012-07-18T06:42:35Z</time>
      </trkpt>
      <trkpt lat="45.58706" lon="3.09469">
        <ele>545.0257</ele>
        <time>2012-07-18T06:42:42Z</time>
      </trkpt>
      <trkpt lat="45.58719" lon="3.09447">
        <ele>545.89777</ele>
        <time>2012-07-18T06:42:49Z</time>
      </trkpt>
      <trkpt lat="45.58739" lon="3.09438">
        <ele>548.35693</ele>
        <time>2012-07-18T06:42:56Z</time>
      </trkpt>
      <trkpt lat="45.58759" lon="3.09432">
        <ele>550.5028</ele>
        <time>2012-07-18T06:43:03Z</time>
      </trkpt>
      <trkpt lat="45.58779" lon="3.09426">
        <ele>552.2571</ele>
        <time>2012-07-18T06:43:10Z</time>
      </trkpt>
      <trkpt lat="45.58797" lon="3.0942">
        <ele>554.401</ele>
        <time>2012-07-18T06:43:17Z</time>
      </trkpt>
      <trkpt lat="45.58816" lon="3.09414">
        <ele>555.5265</ele>
        <time>2012-07-18T06:43:24Z</time>
      </trkpt>
      <trkpt lat="45.58837" lon="3.09407">
        <ele>558.0771</ele>
        <time>2012-07-18T06:43:31Z</time>
      </trkpt>
      <trkpt lat="45.58857" lon="3.09403">
        <ele>557.0981</ele>
        <time>2012-07-18T06:43:36Z</time>
      </trkpt>
      <trkpt lat="45.58877" lon="3.09391">
        <ele>556.1883</ele>
        <time>2012-07-18T06:43:42Z</time>
      </trkpt>
      <trkpt lat="45.58894" lon="3.09374">
        <ele>554.42346</ele>
        <time>2012-07-18T06:43:47Z</time>
      </trkpt>
      <trkpt lat="45.58913" lon="3.09373">
        <ele>553.4938</ele>
        <time>2012-07-18T06:43:53Z</time>
      </trkpt>
      <trkpt lat="45.58934" lon="3.09375">
        <ele>554.81903</ele>
        <time>2012-07-18T06:43:59Z</time>
      </trkpt>
      <trkpt lat="45.58955" lon="3.0938">
        <ele>556.3291</ele>
        <time>2012-07-18T06:44:06Z</time>
      </trkpt>
      <trkpt lat="45.58975" lon="3.09384">
        <ele>557.77734</ele>
        <time>2012-07-18T06:44:13Z</time>
      </trkpt>
      <trkpt lat="45.58994" lon="3.09388">
        <ele>559.0959</ele>
        <time>2012-07-18T06:44:20Z</time>
      </trkpt>
      <trkpt lat="45.59013" lon="3.09396">
        <ele>561.11237</ele>
        <time>2012-07-18T06:44:27Z</time>
      </trkpt>
      <trkpt lat="45.59033" lon="3.09401">
        <ele>563.168</ele>
        <time>2012-07-18T06:44:34Z</time>
      </trkpt>
      <trkpt lat="45.59052" lon="3.09403">
        <ele>564.7901</ele>
        <time>2012-07-18T06:44:42Z</time>
      </trkpt>
      <trkpt lat="45.59072" lon="3.09409">
        <ele>565.0138</ele>
        <time>2012-07-18T06:44:50Z</time>
      </trkpt>
      <trkpt lat="45.5909" lon="3.09417">
        <ele>566.59283</ele>
        <time>2012-07-18T06:44:57Z</time>
      </trkpt>
      <trkpt lat="45.59108" lon="3.09424">
        <ele>568.8263</ele>
        <time>2012-07-18T06:45:04Z</time>
      </trkpt>
      <trkpt lat="45.59126" lon="3.09429">
        <ele>570.7755</ele>
        <time>2012-07-18T06:45:13Z</time>
      </trkpt>
      <trkpt lat="45.59145" lon="3.09432">
        <ele>576.7307</ele>
        <time>2012-07-18T06:45:23Z</time>
      </trkpt>
      <trkpt lat="45.59163" lon="3.09436">
        <ele>579.61115</ele>
        <time>2012-07-18T06:45:33Z</time>
      </trkpt>
      <trkpt lat="45.59182" lon="3.09435">
        <ele>580.9226</ele>
        <time>2012-07-18T06:45:50Z</time>
      </trkpt>
      <trkpt lat="45.59185" lon="3.09409">
        <ele>581.3503</ele>
        <time>2012-07-18T06:46:01Z</time>
      </trkpt>
      <trkpt lat="45.5919" lon="3.09382">
        <ele>584.9163</ele>
        <time>2012-07-18T06:46:13Z</time>
      </trkpt>
      <trkpt lat="45.592" lon="3.09358">
        <ele>584.7027</ele>
        <time>2012-07-18T06:46:23Z</time>
      </trkpt>
      <trkpt lat="45.59219" lon="3.0935">
        <ele>584.2159</ele>
        <time>2012-07-18T06:46:33Z</time>
      </trkpt>
      <trkpt lat="45.59238" lon="3.09347">
        <ele>584.23926</ele>
        <time>2012-07-18T06:46:44Z</time>
      </trkpt>
      <trkpt lat="45.59256" lon="3.09344">
        <ele>586.11725</ele>
        <time>2012-07-18T06:46:56Z</time>
      </trkpt>
      <trkpt lat="45.59274" lon="3.09341">
        <ele>587.2854</ele>
        <time>2012-07-18T06:47:07Z</time>
      </trkpt>
      <trkpt lat="45.59294" lon="3.09337">
        <ele>588.05615</ele>
        <time>2012-07-18T06:47:18Z</time>
      </trkpt>
      <trkpt lat="45.59312" lon="3.09335">
        <ele>588.3609</ele>
        <time>2012-07-18T06:47:28Z</time>
      </trkpt>
      <trkpt lat="45.59331" lon="3.09332">
        <ele>590.8459</ele>
        <time>2012-07-18T06:47:39Z</time>
      </trkpt>
      <trkpt lat="45.59349" lon="3.09327">
        <ele>593.13025</ele>
        <time>2012-07-18T06:47:50Z</time>
      </trkpt>
      <trkpt lat="45.59367" lon="3.0933">
        <ele>594.4256</ele>
        <time>2012-07-18T06:48:02Z</time>
      </trkpt>
      <trkpt lat="45.59385" lon="3.09336">
        <ele>594.826</ele>
        <time>2012-07-18T06:48:27Z</time>
      </trkpt>
      <trkpt lat="45.59405" lon="3.09344">
        <ele>595.0682</ele>
        <time>2012-07-18T06:48:34Z</time>
      </trkpt>
      <trkpt lat="45.59422" lon="3.09355">
        <ele>594.53784</ele>
        <time>2012-07-18T06:48:39Z</time>
      </trkpt>
      <trkpt lat="45.59441" lon="3.09368">
        <ele>594.1473</ele>
        <time>2012-07-18T06:48:44Z</time>
      </trkpt>
      <trkpt lat="45.5946" lon="3.09382">
        <ele>593.63885</ele>
        <time>2012-07-18T06:48:49Z</time>
      </trkpt>
      <trkpt lat="45.59478" lon="3.09394">
        <ele>593.5935</ele>
        <time>2012-07-18T06:48:54Z</time>
      </trkpt>
      <trkpt lat="45.59494" lon="3.09406">
        <ele>593.99396</ele>
        <time>2012-07-18T06:48:59Z</time>
      </trkpt>
      <trkpt lat="45.59514" lon="3.0942">
        <ele>594.5379</ele>
        <time>2012-07-18T06:49:05Z</time>
      </trkpt>
      <trkpt lat="45.59531" lon="3.09432">
        <ele>594.6208</ele>
        <time>2012-07-18T06:49:10Z</time>
      </trkpt>
      <trkpt lat="45.59548" lon="3.09443">
        <ele>594.60114</ele>
        <time>2012-07-18T06:49:15Z</time>
      </trkpt>
      <trkpt lat="45.59564" lon="3.09454">
        <ele>594.6526</ele>
        <time>2012-07-18T06:49:20Z</time>
      </trkpt>
      <trkpt lat="45.59583" lon="3.09467">
        <ele>594.4443</ele>
        <time>2012-07-18T06:49:26Z</time>
      </trkpt>
      <trkpt lat="45.59601" lon="3.09483">
        <ele>594.1968</ele>
        <time>2012-07-18T06:49:32Z</time>
      </trkpt>
      <trkpt lat="45.59614" lon="3.09501">
        <ele>594.19336</ele>
        <time>2012-07-18T06:49:37Z</time>
      </trkpt>
      <trkpt lat="45.59627" lon="3.09519">
        <ele>594.20593</ele>
        <time>2012-07-18T06:49:42Z</time>
      </trkpt>
      <trkpt lat="45.5964" lon="3.09536">
        <ele>594.3069</ele>
        <time>2012-07-18T06:49:47Z</time>
      </trkpt>
      <trkpt lat="45.59642" lon="3.09563">
        <ele>592.92145</ele>
        <time>2012-07-18T06:49:56Z</time>
      </trkpt>
      <trkpt lat="45.59631" lon="3.09588">
        <ele>591.8173</ele>
        <time>2012-07-18T06:50:01Z</time>
      </trkpt>
      <trkpt lat="45.59633" lon="3.09615">
        <ele>591.2215</ele>
        <time>2012-07-18T06:50:05Z</time>
      </trkpt>
      <trkpt lat="45.59652" lon="3.09612">
        <ele>590.9021</ele>
        <time>2012-07-18T06:50:11Z</time>
      </trkpt>
      <trkpt lat="45.59668" lon="3.09597">
        <ele>593.3256</ele>
        <time>2012-07-18T06:50:19Z</time>
      </trkpt>
      <trkpt lat="45.59684" lon="3.09583">
        <ele>594.372</ele>
        <time>2012-07-18T06:50:27Z</time>
      </trkpt>
      <trkpt lat="45.59701" lon="3.09567">
        <ele>594.66833</ele>
        <time>2012-07-18T06:50:35Z</time>
      </trkpt>
      <trkpt lat="45.59716" lon="3.09553">
        <ele>595.62384</ele>
        <time>2012-07-18T06:50:43Z</time>
      </trkpt>
      <trkpt lat="45.59732" lon="3.09538">
        <ele>595.90894</ele>
        <time>2012-07-18T06:50:51Z</time>
      </trkpt>
      <trkpt lat="45.59747" lon="3.09522">
        <ele>596.90784</ele>
        <time>2012-07-18T06:50:59Z</time>
      </trkpt>
      <trkpt lat="45.59762" lon="3.09507">
        <ele>597.9083</ele>
        <time>2012-07-18T06:51:07Z</time>
      </trkpt>
      <trkpt lat="45.59779" lon="3.09492">
        <ele>598.7164</ele>
        <time>2012-07-18T06:51:16Z</time>
      </trkpt>
      <trkpt lat="45.59796" lon="3.09476">
        <ele>598.8481</ele>
        <time>2012-07-18T06:51:24Z</time>
      </trkpt>
      <trkpt lat="45.59812" lon="3.09462">
        <ele>599.57184</ele>
        <time>2012-07-18T06:51:32Z</time>
      </trkpt>
      <trkpt lat="45.59828" lon="3.09445">
        <ele>600.6145</ele>
        <time>2012-07-18T06:51:40Z</time>
      </trkpt>
      <trkpt lat="45.59844" lon="3.09428">
        <ele>602.0619</ele>
        <time>2012-07-18T06:51:49Z</time>
      </trkpt>
      <trkpt lat="45.59857" lon="3.09409">
        <ele>603.4019</ele>
        <time>2012-07-18T06:51:58Z</time>
      </trkpt>
      <trkpt lat="45.59872" lon="3.0939">
        <ele>605.77234</ele>
        <time>2012-07-18T06:52:08Z</time>
      </trkpt>
      <trkpt lat="45.59857" lon="3.09407">
        <ele>605.6813</ele>
        <time>2012-07-18T06:52:56Z</time>
      </trkpt>
      <trkpt lat="45.59841" lon="3.09429">
        <ele>604.10425</ele>
        <time>2012-07-18T06:53:00Z</time>
      </trkpt>
      <trkpt lat="45.59825" lon="3.09448">
        <ele>602.93146</ele>
        <time>2012-07-18T06:53:03Z</time>
      </trkpt>
      <trkpt lat="45.59807" lon="3.09465">
        <ele>601.67267</ele>
        <time>2012-07-18T06:53:06Z</time>
      </trkpt>
      <trkpt lat="45.59788" lon="3.09483">
        <ele>600.5103</ele>
        <time>2012-07-18T06:53:09Z</time>
      </trkpt>
      <trkpt lat="45.59772" lon="3.09499">
        <ele>599.6153</ele>
        <time>2012-07-18T06:53:12Z</time>
      </trkpt>
      <trkpt lat="45.59756" lon="3.09514">
        <ele>598.67523</ele>
        <time>2012-07-18T06:53:15Z</time>
      </trkpt>
      <trkpt lat="45.59738" lon="3.0953">
        <ele>597.83484</ele>
        <time>2012-07-18T06:53:18Z</time>
      </trkpt>
      <trkpt lat="45.5972" lon="3.09547">
        <ele>597.3944</ele>
        <time>2012-07-18T06:53:21Z</time>
      </trkpt>
      <trkpt lat="45.59704" lon="3.09562">
        <ele>596.532</ele>
        <time>2012-07-18T06:53:24Z</time>
      </trkpt>
      <trkpt lat="45.59687" lon="3.09578">
        <ele>595.6135</ele>
        <time>2012-07-18T06:53:27Z</time>
      </trkpt>
      <trkpt lat="45.5967" lon="3.09595">
        <ele>594.8135</ele>
        <time>2012-07-18T06:53:30Z</time>
      </trkpt>
      <trkpt lat="45.59652" lon="3.09611">
        <ele>593.91974</ele>
        <time>2012-07-18T06:53:33Z</time>
      </trkpt>
      <trkpt lat="45.59632" lon="3.09618">
        <ele>592.6927</ele>
        <time>2012-07-18T06:53:36Z</time>
      </trkpt>
      <trkpt lat="45.59614" lon="3.09628">
        <ele>591.25476</ele>
        <time>2012-07-18T06:53:39Z</time>
      </trkpt>
      <trkpt lat="45.59598" lon="3.09646">
        <ele>589.82776</ele>
        <time>2012-07-18T06:53:42Z</time>
      </trkpt>
      <trkpt lat="45.5958" lon="3.09665">
        <ele>588.38965</ele>
        <time>2012-07-18T06:53:46Z</time>
      </trkpt>
      <trkpt lat="45.59582" lon="3.09691">
        <ele>587.3582</ele>
        <time>2012-07-18T06:53:53Z</time>
      </trkpt>
      <trkpt lat="45.59598" lon="3.09711">
        <ele>589.5547</ele>
        <time>2012-07-18T06:54:19Z</time>
      </trkpt>
      <trkpt lat="45.59613" lon="3.0973">
        <ele>590.3664</ele>
        <time>2012-07-18T06:54:24Z</time>
      </trkpt>
      <trkpt lat="45.59628" lon="3.09746">
        <ele>591.2147</ele>
        <time>2012-07-18T06:54:28Z</time>
      </trkpt>
      <trkpt lat="45.59645" lon="3.09764">
        <ele>592.58405</ele>
        <time>2012-07-18T06:54:33Z</time>
      </trkpt>
      <trkpt lat="45.59661" lon="3.09782">
        <ele>593.3434</ele>
        <time>2012-07-18T06:54:38Z</time>
      </trkpt>
      <trkpt lat="45.59677" lon="3.098">
        <ele>593.9661</ele>
        <time>2012-07-18T06:54:44Z</time>
      </trkpt>
      <trkpt lat="45.59692" lon="3.09817">
        <ele>594.59894</ele>
        <time>2012-07-18T06:54:52Z</time>
      </trkpt>
      <trkpt lat="45.59708" lon="3.09834">
        <ele>595.05084</ele>
        <time>2012-07-18T06:55:01Z</time>
      </trkpt>
      <trkpt lat="45.59723" lon="3.0985">
        <ele>595.8312</ele>
        <time>2012-07-18T06:55:09Z</time>
      </trkpt>
      <trkpt lat="45.59738" lon="3.09866">
        <ele>596.1913</ele>
        <time>2012-07-18T06:55:17Z</time>
      </trkpt>
      <trkpt lat="45.59755" lon="3.09883">
        <ele>596.4605</ele>
        <time>2012-07-18T06:55:25Z</time>
      </trkpt>
      <trkpt lat="45.59769" lon="3.09899">
        <ele>597.2466</ele>
        <time>2012-07-18T06:55:32Z</time>
      </trkpt>
      <trkpt lat="45.59785" lon="3.09915">
        <ele>597.46716</ele>
        <time>2012-07-18T06:55:39Z</time>
      </trkpt>
      <trkpt lat="45.59801" lon="3.0993">
        <ele>598.1527</ele>
        <time>2012-07-18T06:55:46Z</time>
      </trkpt>
      <trkpt lat="45.59816" lon="3.09944">
        <ele>598.8988</ele>
        <time>2012-07-18T06:55:53Z</time>
      </trkpt>
      <trkpt lat="45.59832" lon="3.09957">
        <ele>600.22284</ele>
        <time>2012-07-18T06:56:00Z</time>
      </trkpt>
      <trkpt lat="45.59849" lon="3.0997">
        <ele>601.14636</ele>
        <time>2012-07-18T06:56:08Z</time>
      </trkpt>
      <trkpt lat="45.59866" lon="3.09984">
        <ele>602.08307</ele>
        <time>2012-07-18T06:56:16Z</time>
      </trkpt>
      <trkpt lat="45.59883" lon="3.09997">
        <ele>602.393</ele>
        <time>2012-07-18T06:56:24Z</time>
      </trkpt>
      <trkpt lat="45.599" lon="3.10007">
        <ele>602.38196</ele>
        <time>2012-07-18T06:56:31Z</time>
      </trkpt>
      <trkpt lat="45.59918" lon="3.1002">
        <ele>602.5827</ele>
        <time>2012-07-18T06:56:39Z</time>
      </trkpt>
      <trkpt lat="45.59935" lon="3.10031">
        <ele>603.4013</ele>
        <time>2012-07-18T06:56:46Z</time>
      </trkpt>
      <trkpt lat="45.59954" lon="3.10042">
        <ele>604.92834</ele>
        <time>2012-07-18T06:56:54Z</time>
      </trkpt>
      <trkpt lat="45.59973" lon="3.10053">
        <ele>604.966</ele>
        <time>2012-07-18T06:57:01Z</time>
      </trkpt>
      <trkpt lat="45.5999" lon="3.10064">
        <ele>603.7399</ele>
        <time>2012-07-18T06:57:08Z</time>
      </trkpt>
      <trkpt lat="45.60007" lon="3.10077">
        <ele>602.957</ele>
        <time>2012-07-18T06:57:14Z</time>
      </trkpt>
      <trkpt lat="45.60025" lon="3.10092">
        <ele>602.40497</ele>
        <time>2012-07-18T06:57:20Z</time>
      </trkpt>
      <trkpt lat="45.60045" lon="3.10102">
        <ele>601.9087</ele>
        <time>2012-07-18T06:57:26Z</time>
      </trkpt>
      <trkpt lat="45.60064" lon="3.10108">
        <ele>601.1324</ele>
        <time>2012-07-18T06:57:32Z</time>
      </trkpt>
      <trkpt lat="45.60084" lon="3.10114">
        <ele>600.74774</ele>
        <time>2012-07-18T06:57:39Z</time>
      </trkpt>
      <trkpt lat="45.60105" lon="3.10123">
        <ele>600.71423</ele>
        <time>2012-07-18T06:57:45Z</time>
      </trkpt>
      <trkpt lat="45.60123" lon="3.10131">
        <ele>599.65985</ele>
        <time>2012-07-18T06:57:50Z</time>
      </trkpt>
      <trkpt lat="45.60142" lon="3.10141">
        <ele>598.0748</ele>
        <time>2012-07-18T06:57:55Z</time>
      </trkpt>
      <trkpt lat="45.6016" lon="3.10156">
        <ele>596.5522</ele>
        <time>2012-07-18T06:57:59Z</time>
      </trkpt>
      <trkpt lat="45.6018" lon="3.10175">
        <ele>594.9907</ele>
        <time>2012-07-18T06:58:03Z</time>
      </trkpt>
      <trkpt lat="45.60199" lon="3.10189">
        <ele>592.49945</ele>
        <time>2012-07-18T06:58:07Z</time>
      </trkpt>
      <trkpt lat="45.60216" lon="3.102">
        <ele>589.9697</ele>
        <time>2012-07-18T06:58:11Z</time>
      </trkpt>
      <trkpt lat="45.60236" lon="3.10213">
        <ele>587.4501</ele>
        <time>2012-07-18T06:58:16Z</time>
      </trkpt>
      <trkpt lat="45.60251" lon="3.1023">
        <ele>589.62024</ele>
        <time>2012-07-18T06:58:22Z</time>
      </trkpt>
      <trkpt lat="45.6027" lon="3.10243">
        <ele>592.02</ele>
        <time>2012-07-18T06:58:29Z</time>
      </trkpt>
      <trkpt lat="45.60289" lon="3.10253">
        <ele>593.4726</ele>
        <time>2012-07-18T06:58:36Z</time>
      </trkpt>
      <trkpt lat="45.60306" lon="3.10263">
        <ele>594.7943</ele>
        <time>2012-07-18T06:58:43Z</time>
      </trkpt>
      <trkpt lat="45.60323" lon="3.10278">
        <ele>596.866</ele>
        <time>2012-07-18T06:58:51Z</time>
      </trkpt>
      <trkpt lat="45.60336" lon="3.10298">
        <ele>599.2629</ele>
        <time>2012-07-18T06:58:59Z</time>
      </trkpt>
      <trkpt lat="45.6035" lon="3.10316">
        <ele>600.37897</ele>
        <time>2012-07-18T06:59:38Z</time>
      </trkpt>
      <trkpt lat="45.60363" lon="3.10334">
        <ele>601.4877</ele>
        <time>2012-07-18T06:59:46Z</time>
      </trkpt>
      <trkpt lat="45.6038" lon="3.10349">
        <ele>603.5392</ele>
        <time>2012-07-18T06:59:54Z</time>
      </trkpt>
      <trkpt lat="45.60397" lon="3.10361">
        <ele>603.984</ele>
        <time>2012-07-18T07:00:02Z</time>
      </trkpt>
      <trkpt lat="45.60414" lon="3.10372">
        <ele>605.7451</ele>
        <time>2012-07-18T07:00:10Z</time>
      </trkpt>
      <trkpt lat="45.60429" lon="3.10387">
        <ele>607.51965</ele>
        <time>2012-07-18T07:00:18Z</time>
      </trkpt>
      <trkpt lat="45.60444" lon="3.10404">
        <ele>609.1765</ele>
        <time>2012-07-18T07:00:27Z</time>
      </trkpt>
      <trkpt lat="45.60459" lon="3.10423">
        <ele>612.2498</ele>
        <time>2012-07-18T07:00:37Z</time>
      </trkpt>
      <trkpt lat="45.60473" lon="3.10443">
        <ele>614.62976</ele>
        <time>2012-07-18T07:00:47Z</time>
      </trkpt>
      <trkpt lat="45.60488" lon="3.1046">
        <ele>616.61005</ele>
        <time>2012-07-18T07:00:57Z</time>
      </trkpt>
      <trkpt lat="45.60503" lon="3.10476">
        <ele>618.60565</ele>
        <time>2012-07-18T07:01:08Z</time>
      </trkpt>
      <trkpt lat="45.60518" lon="3.10493">
        <ele>620.63654</ele>
        <time>2012-07-18T07:01:18Z</time>
      </trkpt>
      <trkpt lat="45.60534" lon="3.10506">
        <ele>622.45593</ele>
        <time>2012-07-18T07:01:29Z</time>
      </trkpt>
      <trkpt lat="45.60549" lon="3.10519">
        <ele>624.20874</ele>
        <time>2012-07-18T07:01:40Z</time>
      </trkpt>
      <trkpt lat="45.60567" lon="3.10529">
        <ele>626.67004</ele>
        <time>2012-07-18T07:01:51Z</time>
      </trkpt>
      <trkpt lat="45.60585" lon="3.10536">
        <ele>627.30255</ele>
        <time>2012-07-18T07:02:03Z</time>
      </trkpt>
      <trkpt lat="45.60603" lon="3.10542">
        <ele>629.5915</ele>
        <time>2012-07-18T07:02:15Z</time>
      </trkpt>
      <trkpt lat="45.6062" lon="3.10552">
        <ele>633.13025</ele>
        <time>2012-07-18T07:02:26Z</time>
      </trkpt>
      <trkpt lat="45.60637" lon="3.10565">
        <ele>634.69025</ele>
        <time>2012-07-18T07:02:39Z</time>
      </trkpt>
      <trkpt lat="45.60652" lon="3.10581">
        <ele>635.49457</ele>
        <time>2012-07-18T07:02:51Z</time>
      </trkpt>
      <trkpt lat="45.60666" lon="3.10596">
        <ele>636.6813</ele>
        <time>2012-07-18T07:03:02Z</time>
      </trkpt>
      <trkpt lat="45.60681" lon="3.10612">
        <ele>638.58655</ele>
        <time>2012-07-18T07:03:13Z</time>
      </trkpt>
      <trkpt lat="45.60696" lon="3.10627">
        <ele>640.46436</ele>
        <time>2012-07-18T07:03:25Z</time>
      </trkpt>
      <trkpt lat="45.60712" lon="3.10639">
        <ele>641.8181</ele>
        <time>2012-07-18T07:03:36Z</time>
      </trkpt>
      <trkpt lat="45.60729" lon="3.10649">
        <ele>643.39124</ele>
        <time>2012-07-18T07:03:45Z</time>
      </trkpt>
      <trkpt lat="45.60748" lon="3.10657">
        <ele>644.6399</ele>
        <time>2012-07-18T07:03:53Z</time>
      </trkpt>
      <trkpt lat="45.60759" lon="3.10636">
        <ele>645.391</ele>
        <time>2012-07-18T07:05:28Z</time>
      </trkpt>
      <trkpt lat="45.60765" lon="3.1061">
        <ele>645.60284</ele>
        <time>2012-07-18T07:05:37Z</time>
      </trkpt>
      <trkpt lat="45.60773" lon="3.10586">
        <ele>646.4782</ele>
        <time>2012-07-18T07:05:44Z</time>
      </trkpt>
      <trkpt lat="45.60781" lon="3.10561">
        <ele>647.8082</ele>
        <time>2012-07-18T07:05:52Z</time>
      </trkpt>
      <trkpt lat="45.6079" lon="3.10536">
        <ele>649.49304</ele>
        <time>2012-07-18T07:06:00Z</time>
      </trkpt>
      <trkpt lat="45.60797" lon="3.10509">
        <ele>650.8895</ele>
        <time>2012-07-18T07:06:08Z</time>
      </trkpt>
      <trkpt lat="45.60804" lon="3.10482">
        <ele>652.33655</ele>
        <time>2012-07-18T07:06:17Z</time>
      </trkpt>
      <trkpt lat="45.60815" lon="3.10462">
        <ele>654.1698</ele>
        <time>2012-07-18T07:06:27Z</time>
      </trkpt>
      <trkpt lat="45.60834" lon="3.10465">
        <ele>655.2131</ele>
        <time>2012-07-18T07:06:37Z</time>
      </trkpt>
      <trkpt lat="45.60853" lon="3.10469">
        <ele>655.6178</ele>
        <time>2012-07-18T07:06:46Z</time>
      </trkpt>
      <trkpt lat="45.60871" lon="3.10472">
        <ele>656.2745</ele>
        <time>2012-07-18T07:06:55Z</time>
      </trkpt>
      <trkpt lat="45.60889" lon="3.10475">
        <ele>656.6184</ele>
        <time>2012-07-18T07:07:05Z</time>
      </trkpt>
      <trkpt lat="45.60908" lon="3.10476">
        <ele>658.4257</ele>
        <time>2012-07-18T07:07:15Z</time>
      </trkpt>
      <trkpt lat="45.60927" lon="3.10476">
        <ele>659.0796</ele>
        <time>2012-07-18T07:07:25Z</time>
      </trkpt>
      <trkpt lat="45.60945" lon="3.10476">
        <ele>659.90625</ele>
        <time>2012-07-18T07:07:34Z</time>
      </trkpt>
      <trkpt lat="45.60964" lon="3.10475">
        <ele>660.1531</ele>
        <time>2012-07-18T07:07:43Z</time>
      </trkpt>
      <trkpt lat="45.60984" lon="3.10472">
        <ele>660.59686</ele>
        <time>2012-07-18T07:07:52Z</time>
      </trkpt>
      <trkpt lat="45.61003" lon="3.10468">
        <ele>661.39417</ele>
        <time>2012-07-18T07:08:01Z</time>
      </trkpt>
      <trkpt lat="45.61022" lon="3.1046">
        <ele>662.69086</ele>
        <time>2012-07-18T07:08:10Z</time>
      </trkpt>
      <trkpt lat="45.6104" lon="3.10453">
        <ele>663.9914</ele>
        <time>2012-07-18T07:08:20Z</time>
      </trkpt>
      <trkpt lat="45.61058" lon="3.10445">
        <ele>664.65826</ele>
        <time>2012-07-18T07:08:28Z</time>
      </trkpt>
      <trkpt lat="45.61077" lon="3.10439">
        <ele>665.66864</ele>
        <time>2012-07-18T07:08:36Z</time>
      </trkpt>
      <trkpt lat="45.61094" lon="3.10431">
        <ele>666.79474</ele>
        <time>2012-07-18T07:08:44Z</time>
      </trkpt>
      <trkpt lat="45.61111" lon="3.10421">
        <ele>669.39655</ele>
        <time>2012-07-18T07:08:53Z</time>
      </trkpt>
      <trkpt lat="45.61128" lon="3.10414">
        <ele>671.23175</ele>
        <time>2012-07-18T07:09:02Z</time>
      </trkpt>
      <trkpt lat="45.61147" lon="3.10412">
        <ele>672.16016</ele>
        <time>2012-07-18T07:09:11Z</time>
      </trkpt>
      <trkpt lat="45.61166" lon="3.10412">
        <ele>672.42444</ele>
        <time>2012-07-18T07:09:20Z</time>
      </trkpt>
      <trkpt lat="45.61184" lon="3.1041">
        <ele>672.81793</ele>
        <time>2012-07-18T07:09:29Z</time>
      </trkpt>
      <trkpt lat="45.61203" lon="3.10404">
        <ele>673.71906</ele>
        <time>2012-07-18T07:09:38Z</time>
      </trkpt>
      <trkpt lat="45.61222" lon="3.10398">
        <ele>674.5541</ele>
        <time>2012-07-18T07:09:48Z</time>
      </trkpt>
      <trkpt lat="45.61239" lon="3.10392">
        <ele>675.29974</ele>
        <time>2012-07-18T07:09:57Z</time>
      </trkpt>
      <trkpt lat="45.61257" lon="3.10386">
        <ele>676.0743</ele>
        <time>2012-07-18T07:10:07Z</time>
      </trkpt>
      <trkpt lat="45.6126" lon="3.1036">
        <ele>678.4614</ele>
        <time>2012-07-18T07:10:21Z</time>
      </trkpt>
      <trkpt lat="45.61255" lon="3.10334">
        <ele>681.0026</ele>
        <time>2012-07-18T07:10:33Z</time>
      </trkpt>
      <trkpt lat="45.61249" lon="3.1031">
        <ele>683.6016</ele>
        <time>2012-07-18T07:10:45Z</time>
      </trkpt>
      <trkpt lat="45.61244" lon="3.10284">
        <ele>686.3512</ele>
        <time>2012-07-18T07:10:57Z</time>
      </trkpt>
      <trkpt lat="45.61238" lon="3.10259">
        <ele>688.6003</ele>
        <time>2012-07-18T07:11:09Z</time>
      </trkpt>
      <trkpt lat="45.61237" lon="3.10232">
        <ele>690.1072</ele>
        <time>2012-07-18T07:11:29Z</time>
      </trkpt>
      <trkpt lat="45.61238" lon="3.10206">
        <ele>691.91815</ele>
        <time>2012-07-18T07:11:41Z</time>
      </trkpt>
      <trkpt lat="45.61242" lon="3.10179">
        <ele>692.5231</ele>
        <time>2012-07-18T07:11:53Z</time>
      </trkpt>
      <trkpt lat="45.61246" lon="3.10153">
        <ele>692.63763</ele>
        <time>2012-07-18T07:12:03Z</time>
      </trkpt>
      <trkpt lat="45.61248" lon="3.10125">
        <ele>693.88727</ele>
        <time>2012-07-18T07:12:12Z</time>
      </trkpt>
      <trkpt lat="45.6125" lon="3.10097">
        <ele>694.72186</ele>
        <time>2012-07-18T07:12:20Z</time>
      </trkpt>
      <trkpt lat="45.61252" lon="3.10069">
        <ele>695.4809</ele>
        <time>2012-07-18T07:12:28Z</time>
      </trkpt>
      <trkpt lat="45.61255" lon="3.10044">
        <ele>695.14825</ele>
        <time>2012-07-18T07:12:35Z</time>
      </trkpt>
      <trkpt lat="45.61258" lon="3.10016">
        <ele>694.9981</ele>
        <time>2012-07-18T07:12:42Z</time>
      </trkpt>
      <trkpt lat="45.61263" lon="3.09991">
        <ele>694.85004</ele>
        <time>2012-07-18T07:12:49Z</time>
      </trkpt>
      <trkpt lat="45.61268" lon="3.09963">
        <ele>695.7097</ele>
        <time>2012-07-18T07:12:57Z</time>
      </trkpt>
      <trkpt lat="45.61275" lon="3.09939">
        <ele>696.2933</ele>
        <time>2012-07-18T07:13:04Z</time>
      </trkpt>
      <trkpt lat="45.61282" lon="3.09913">
        <ele>696.4036</ele>
        <time>2012-07-18T07:13:11Z</time>
      </trkpt>
      <trkpt lat="45.61289" lon="3.09885">
        <ele>697.1647</ele>
        <time>2012-07-18T07:13:18Z</time>
      </trkpt>
      <trkpt lat="45.61296" lon="3.09858">
        <ele>696.9943</ele>
        <time>2012-07-18T07:13:25Z</time>
      </trkpt>
      <trkpt lat="45.61302" lon="3.09832">
        <ele>697.11035</ele>
        <time>2012-07-18T07:13:32Z</time>
      </trkpt>
      <trkpt lat="45.6131" lon="3.09806">
        <ele>697.4688</ele>
        <time>2012-07-18T07:13:39Z</time>
      </trkpt>
      <trkpt lat="45.61317" lon="3.0978">
        <ele>697.80273</ele>
        <time>2012-07-18T07:13:46Z</time>
      </trkpt>
      <trkpt lat="45.61324" lon="3.09752">
        <ele>698.1338</ele>
        <time>2012-07-18T07:13:53Z</time>
      </trkpt>
      <trkpt lat="45.61332" lon="3.09727">
        <ele>698.4343</ele>
        <time>2012-07-18T07:14:00Z</time>
      </trkpt>
      <trkpt lat="45.61341" lon="3.09703">
        <ele>698.35895</ele>
        <time>2012-07-18T07:14:07Z</time>
      </trkpt>
      <trkpt lat="45.61351" lon="3.09682">
        <ele>698.9398</ele>
        <time>2012-07-18T07:14:14Z</time>
      </trkpt>
      <trkpt lat="45.61368" lon="3.0967">
        <ele>699.19415</ele>
        <time>2012-07-18T07:14:22Z</time>
      </trkpt>
      <trkpt lat="45.61388" lon="3.09663">
        <ele>697.6695</ele>
        <time>2012-07-18T07:14:27Z</time>
      </trkpt>
      <trkpt lat="45.61403" lon="3.09648">
        <ele>696.6165</ele>
        <time>2012-07-18T07:14:31Z</time>
      </trkpt>
      <trkpt lat="45.61419" lon="3.09626">
        <ele>695.7492</ele>
        <time>2012-07-18T07:14:36Z</time>
      </trkpt>
      <trkpt lat="45.61434" lon="3.09605">
        <ele>695.25183</ele>
        <time>2012-07-18T07:14:41Z</time>
      </trkpt>
      <trkpt lat="45.61449" lon="3.09583">
        <ele>694.8482</ele>
        <time>2012-07-18T07:14:46Z</time>
      </trkpt>
      <trkpt lat="45.61464" lon="3.09561">
        <ele>694.2878</ele>
        <time>2012-07-18T07:14:51Z</time>
      </trkpt>
      <trkpt lat="45.61477" lon="3.09541">
        <ele>693.39105</ele>
        <time>2012-07-18T07:14:55Z</time>
      </trkpt>
      <trkpt lat="45.61493" lon="3.09518">
        <ele>692.97723</ele>
        <time>2012-07-18T07:14:59Z</time>
      </trkpt>
      <trkpt lat="45.61507" lon="3.09494">
        <ele>692.694</ele>
        <time>2012-07-18T07:15:03Z</time>
      </trkpt>
      <trkpt lat="45.61523" lon="3.09475">
        <ele>692.4356</ele>
        <time>2012-07-18T07:15:07Z</time>
      </trkpt>
      <trkpt lat="45.61541" lon="3.0946">
        <ele>692.50696</ele>
        <time>2012-07-18T07:15:11Z</time>
      </trkpt>
      <trkpt lat="45.61561" lon="3.09448">
        <ele>692.4311</ele>
        <time>2012-07-18T07:15:15Z</time>
      </trkpt>
      <trkpt lat="45.61581" lon="3.09438">
        <ele>692.18134</ele>
        <time>2012-07-18T07:15:19Z</time>
      </trkpt>
      <trkpt lat="45.616" lon="3.09427">
        <ele>692.2621</ele>
        <time>2012-07-18T07:15:23Z</time>
      </trkpt>
      <trkpt lat="45.61617" lon="3.09417">
        <ele>691.34033</ele>
        <time>2012-07-18T07:15:27Z</time>
      </trkpt>
      <trkpt lat="45.61637" lon="3.09405">
        <ele>690.7326</ele>
        <time>2012-07-18T07:15:32Z</time>
      </trkpt>
      <trkpt lat="45.61654" lon="3.09391">
        <ele>690.04004</ele>
        <time>2012-07-18T07:15:36Z</time>
      </trkpt>
      <trkpt lat="45.6167" lon="3.09378">
        <ele>689.50604</ele>
        <time>2012-07-18T07:15:40Z</time>
      </trkpt>
      <trkpt lat="45.61684" lon="3.09361">
        <ele>689.4537</ele>
        <time>2012-07-18T07:15:45Z</time>
      </trkpt>
      <trkpt lat="45.61699" lon="3.09341">
        <ele>689.75226</ele>
        <time>2012-07-18T07:15:50Z</time>
      </trkpt>
      <trkpt lat="45.61712" lon="3.09318">
        <ele>690.6222</ele>
        <time>2012-07-18T07:15:55Z</time>
      </trkpt>
      <trkpt lat="45.61728" lon="3.09297">
        <ele>691.6538</ele>
        <time>2012-07-18T07:16:00Z</time>
      </trkpt>
      <trkpt lat="45.61744" lon="3.09279">
        <ele>692.44635</ele>
        <time>2012-07-18T07:16:05Z</time>
      </trkpt>
      <trkpt lat="45.61762" lon="3.09265">
        <ele>693.0759</ele>
        <time>2012-07-18T07:16:10Z</time>
      </trkpt>
      <trkpt lat="45.61778" lon="3.0925">
        <ele>693.8796</ele>
        <time>2012-07-18T07:16:15Z</time>
      </trkpt>
      <trkpt lat="45.61792" lon="3.09233">
        <ele>694.16077</ele>
        <time>2012-07-18T07:16:20Z</time>
      </trkpt>
      <trkpt lat="45.61805" lon="3.09214">
        <ele>693.9076</ele>
        <time>2012-07-18T07:16:25Z</time>
      </trkpt>
      <trkpt lat="45.6182" lon="3.09194">
        <ele>693.7654</ele>
        <time>2012-07-18T07:16:30Z</time>
      </trkpt>
      <trkpt lat="45.61832" lon="3.09176">
        <ele>693.00116</ele>
        <time>2012-07-18T07:16:34Z</time>
      </trkpt>
      <trkpt lat="45.61846" lon="3.09157">
        <ele>692.3031</ele>
        <time>2012-07-18T07:16:38Z</time>
      </trkpt>
      <trkpt lat="45.61861" lon="3.09139">
        <ele>691.5197</ele>
        <time>2012-07-18T07:16:42Z</time>
      </trkpt>
      <trkpt lat="45.61879" lon="3.09122">
        <ele>690.5379</ele>
        <time>2012-07-18T07:16:46Z</time>
      </trkpt>
      <trkpt lat="45.61901" lon="3.09111">
        <ele>688.2245</ele>
        <time>2012-07-18T07:16:50Z</time>
      </trkpt>
      <trkpt lat="45.61922" lon="3.09105">
        <ele>686.4463</ele>
        <time>2012-07-18T07:16:53Z</time>
      </trkpt>
      <trkpt lat="45.61943" lon="3.09097">
        <ele>685.11487</ele>
        <time>2012-07-18T07:16:56Z</time>
      </trkpt>
      <trkpt lat="45.61962" lon="3.09089">
        <ele>684.0125</ele>
        <time>2012-07-18T07:16:59Z</time>
      </trkpt>
      <trkpt lat="45.61981" lon="3.09082">
        <ele>683.33484</ele>
        <time>2012-07-18T07:17:03Z</time>
      </trkpt>
      <trkpt lat="45.62" lon="3.09077">
        <ele>682.66864</ele>
        <time>2012-07-18T07:17:09Z</time>
      </trkpt>
      <trkpt lat="45.62011" lon="3.09053">
        <ele>682.6454</ele>
        <time>2012-07-18T07:17:14Z</time>
      </trkpt>
      <trkpt lat="45.62018" lon="3.09025">
        <ele>682.51825</ele>
        <time>2012-07-18T07:17:18Z</time>
      </trkpt>
      <trkpt lat="45.62026" lon="3.09001">
        <ele>682.22455</ele>
        <time>2012-07-18T07:17:22Z</time>
      </trkpt>
      <trkpt lat="45.62035" lon="3.08978">
        <ele>681.432</ele>
        <time>2012-07-18T07:17:26Z</time>
      </trkpt>
      <trkpt lat="45.62046" lon="3.08954">
        <ele>680.9199</ele>
        <time>2012-07-18T07:17:30Z</time>
      </trkpt>
      <trkpt lat="45.62057" lon="3.08928">
        <ele>680.3067</ele>
        <time>2012-07-18T07:17:34Z</time>
      </trkpt>
      <trkpt lat="45.62069" lon="3.08899">
        <ele>679.3115</ele>
        <time>2012-07-18T07:17:38Z</time>
      </trkpt>
      <trkpt lat="45.62079" lon="3.08872">
        <ele>677.89154</ele>
        <time>2012-07-18T07:17:42Z</time>
      </trkpt>
      <trkpt lat="45.62093" lon="3.08848">
        <ele>676.27936</ele>
        <time>2012-07-18T07:17:46Z</time>
      </trkpt>
      <trkpt lat="45.62109" lon="3.08837">
        <ele>675.78644</ele>
        <time>2012-07-18T07:17:50Z</time>
      </trkpt>
      <trkpt lat="45.62127" lon="3.08828">
        <ele>675.6421</ele>
        <time>2012-07-18T07:17:55Z</time>
      </trkpt>
      <trkpt lat="45.62146" lon="3.0882">
        <ele>676.4897</ele>
        <time>2012-07-18T07:18:01Z</time>
      </trkpt>
      <trkpt lat="45.62141" lon="3.08795">
        <ele>676.4515</ele>
        <time>2012-07-18T07:18:09Z</time>
      </trkpt>
      <trkpt lat="45.6214" lon="3.08769">
        <ele>677.7265</ele>
        <time>2012-07-18T07:18:15Z</time>
      </trkpt>
      <trkpt lat="45.6216" lon="3.0876">
        <ele>677.0883</ele>
        <time>2012-07-18T07:18:21Z</time>
      </trkpt>
      <trkpt lat="45.62181" lon="3.08751">
        <ele>677.9054</ele>
        <time>2012-07-18T07:18:26Z</time>
      </trkpt>
      <trkpt lat="45.62198" lon="3.08742">
        <ele>678.29144</ele>
        <time>2012-07-18T07:18:31Z</time>
      </trkpt>
      <trkpt lat="45.62216" lon="3.08748">
        <ele>678.8309</ele>
        <time>2012-07-18T07:18:35Z</time>
      </trkpt>
      <trkpt lat="45.62236" lon="3.08756">
        <ele>678.0008</ele>
        <time>2012-07-18T07:18:39Z</time>
      </trkpt>
      <trkpt lat="45.62255" lon="3.08762">
        <ele>676.4682</ele>
        <time>2012-07-18T07:18:43Z</time>
      </trkpt>
      <trkpt lat="45.62273" lon="3.0876">
        <ele>675.43134</ele>
        <time>2012-07-18T07:18:47Z</time>
      </trkpt>
      <trkpt lat="45.62292" lon="3.08757">
        <ele>673.3275</ele>
        <time>2012-07-18T07:18:51Z</time>
      </trkpt>
      <trkpt lat="45.6231" lon="3.08752">
        <ele>672.8571</ele>
        <time>2012-07-18T07:18:55Z</time>
      </trkpt>
      <trkpt lat="45.62329" lon="3.08747">
        <ele>670.59033</ele>
        <time>2012-07-18T07:18:59Z</time>
      </trkpt>
      <trkpt lat="45.62346" lon="3.08731">
        <ele>667.9239</ele>
        <time>2012-07-18T07:19:03Z</time>
      </trkpt>
      <trkpt lat="45.62362" lon="3.08716">
        <ele>663.8279</ele>
        <time>2012-07-18T07:19:07Z</time>
      </trkpt>
      <trkpt lat="45.62379" lon="3.08728">
        <ele>660.21674</ele>
        <time>2012-07-18T07:19:12Z</time>
      </trkpt>
      <trkpt lat="45.62381" lon="3.08755">
        <ele>659.71643</ele>
        <time>2012-07-18T07:19:15Z</time>
      </trkpt>
      <trkpt lat="45.62388" lon="3.08784">
        <ele>658.00793</ele>
        <time>2012-07-18T07:19:19Z</time>
      </trkpt>
      <trkpt lat="45.62401" lon="3.08803">
        <ele>657.59143</ele>
        <time>2012-07-18T07:19:24Z</time>
      </trkpt>
      <trkpt lat="45.62416" lon="3.0882">
        <ele>659.13086</ele>
        <time>2012-07-18T07:19:29Z</time>
      </trkpt>
      <trkpt lat="45.62431" lon="3.08835">
        <ele>663.43866</ele>
        <time>2012-07-18T07:19:35Z</time>
      </trkpt>
      <trkpt lat="45.62449" lon="3.08848">
        <ele>666.83966</ele>
        <time>2012-07-18T07:19:42Z</time>
      </trkpt>
      <trkpt lat="45.62469" lon="3.08851">
        <ele>666.90454</ele>
        <time>2012-07-18T07:19:51Z</time>
      </trkpt>
      <trkpt lat="45.62487" lon="3.0885">
        <ele>667.3263</ele>
        <time>2012-07-18T07:19:59Z</time>
      </trkpt>
      <trkpt lat="45.62507" lon="3.08851">
        <ele>668.4726</ele>
        <time>2012-07-18T07:20:09Z</time>
      </trkpt>
      <trkpt lat="45.62526" lon="3.08854">
        <ele>670.03577</ele>
        <time>2012-07-18T07:20:19Z</time>
      </trkpt>
      <trkpt lat="45.62545" lon="3.08855">
        <ele>670.0679</ele>
        <time>2012-07-18T07:20:28Z</time>
      </trkpt>
      <trkpt lat="45.62562" lon="3.08841">
        <ele>671.6317</ele>
        <time>2012-07-18T07:20:38Z</time>
      </trkpt>
      <trkpt lat="45.62574" lon="3.0882">
        <ele>674.1065</ele>
        <time>2012-07-18T07:20:48Z</time>
      </trkpt>
      <trkpt lat="45.62589" lon="3.08806">
        <ele>676.75946</ele>
        <time>2012-07-18T07:20:59Z</time>
      </trkpt>
      <trkpt lat="45.62602" lon="3.08785">
        <ele>679.05316</ele>
        <time>2012-07-18T07:21:11Z</time>
      </trkpt>
      <trkpt lat="45.62609" lon="3.08762">
        <ele>680.929</ele>
        <time>2012-07-18T07:21:20Z</time>
      </trkpt>
      <trkpt lat="45.62616" lon="3.08735">
        <ele>682.29974</ele>
        <time>2012-07-18T07:22:37Z</time>
      </trkpt>
      <trkpt lat="45.62621" lon="3.0871">
        <ele>682.0646</ele>
        <time>2012-07-18T07:22:45Z</time>
      </trkpt>
      <trkpt lat="45.62634" lon="3.08687">
        <ele>681.98236</ele>
        <time>2012-07-18T07:22:51Z</time>
      </trkpt>
      <trkpt lat="45.62652" lon="3.08684">
        <ele>681.8083</ele>
        <time>2012-07-18T07:22:57Z</time>
      </trkpt>
      <trkpt lat="45.62674" lon="3.08682">
        <ele>680.0303</ele>
        <time>2012-07-18T07:23:02Z</time>
      </trkpt>
      <trkpt lat="45.62695" lon="3.0868">
        <ele>678.4178</ele>
        <time>2012-07-18T07:23:06Z</time>
      </trkpt>
      <trkpt lat="45.62717" lon="3.08671">
        <ele>675.4369</ele>
        <time>2012-07-18T07:23:10Z</time>
      </trkpt>
      <trkpt lat="45.62735" lon="3.08656">
        <ele>671.8277</ele>
        <time>2012-07-18T07:23:14Z</time>
      </trkpt>
      <trkpt lat="45.62757" lon="3.08646">
        <ele>668.9131</ele>
        <time>2012-07-18T07:23:18Z</time>
      </trkpt>
      <trkpt lat="45.62775" lon="3.08635">
        <ele>666.00415</ele>
        <time>2012-07-18T07:23:22Z</time>
      </trkpt>
      <trkpt lat="45.62797" lon="3.08622">
        <ele>663.3458</ele>
        <time>2012-07-18T07:23:26Z</time>
      </trkpt>
      <trkpt lat="45.62816" lon="3.08609">
        <ele>658.7343</ele>
        <time>2012-07-18T07:23:31Z</time>
      </trkpt>
      <trkpt lat="45.62834" lon="3.08597">
        <ele>654.1489</ele>
        <time>2012-07-18T07:23:37Z</time>
      </trkpt>
      <trkpt lat="45.6285" lon="3.08581">
        <ele>651.0506</ele>
        <time>2012-07-18T07:23:43Z</time>
      </trkpt>
      <trkpt lat="45.62867" lon="3.08565">
        <ele>646.9343</ele>
        <time>2012-07-18T07:23:50Z</time>
      </trkpt>
      <trkpt lat="45.62884" lon="3.08554">
        <ele>641.9353</ele>
        <time>2012-07-18T07:23:58Z</time>
      </trkpt>
      <trkpt lat="45.62902" lon="3.08562">
        <ele>637.1202</ele>
        <time>2012-07-18T07:24:04Z</time>
      </trkpt>
      <trkpt lat="45.6292" lon="3.08557">
        <ele>634.976</ele>
        <time>2012-07-18T07:25:05Z</time>
      </trkpt>
      <trkpt lat="45.62925" lon="3.08532">
        <ele>628.9745</ele>
        <time>2012-07-18T07:25:15Z</time>
      </trkpt>
      <trkpt lat="45.6294" lon="3.08516">
        <ele>633.05237</ele>
        <time>2012-07-18T07:25:22Z</time>
      </trkpt>
      <trkpt lat="45.62959" lon="3.08513">
        <ele>637.2632</ele>
        <time>2012-07-18T07:25:29Z</time>
      </trkpt>
      <trkpt lat="45.62976" lon="3.08496">
        <ele>635.45514</ele>
        <time>2012-07-18T07:25:36Z</time>
      </trkpt>
      <trkpt lat="45.62984" lon="3.08471">
        <ele>633.18536</ele>
        <time>2012-07-18T07:25:44Z</time>
      </trkpt>
      <trkpt lat="45.63" lon="3.08455">
        <ele>633.6961</ele>
        <time>2012-07-18T07:25:52Z</time>
      </trkpt>
      <trkpt lat="45.6302" lon="3.08449">
        <ele>633.22217</ele>
        <time>2012-07-18T07:26:01Z</time>
      </trkpt>
      <trkpt lat="45.63036" lon="3.08461">
        <ele>638.1502</ele>
        <time>2012-07-18T07:26:16Z</time>
      </trkpt>
      <trkpt lat="45.63055" lon="3.08469">
        <ele>634.72205</ele>
        <time>2012-07-18T07:26:22Z</time>
      </trkpt>
      <trkpt lat="45.63076" lon="3.08476">
        <ele>632.98065</ele>
        <time>2012-07-18T07:26:27Z</time>
      </trkpt>
      <trkpt lat="45.63096" lon="3.08471">
        <ele>639.52997</ele>
        <time>2012-07-18T07:26:35Z</time>
      </trkpt>
      <trkpt lat="45.63112" lon="3.08459">
        <ele>643.24054</ele>
        <time>2012-07-18T07:26:41Z</time>
      </trkpt>
      <trkpt lat="45.6313" lon="3.08446">
        <ele>644.57214</ele>
        <time>2012-07-18T07:26:46Z</time>
      </trkpt>
      <trkpt lat="45.63147" lon="3.08438">
        <ele>646.36676</ele>
        <time>2012-07-18T07:26:59Z</time>
      </trkpt>
      <trkpt lat="45.63163" lon="3.08423">
        <ele>649.9614</ele>
        <time>2012-07-18T07:27:04Z</time>
      </trkpt>
      <trkpt lat="45.63184" lon="3.08426">
        <ele>648.6283</ele>
        <time>2012-07-18T07:27:10Z</time>
      </trkpt>
      <trkpt lat="45.63202" lon="3.08422">
        <ele>647.3416</ele>
        <time>2012-07-18T07:27:16Z</time>
      </trkpt>
      <trkpt lat="45.63221" lon="3.08418">
        <ele>647.4374</ele>
        <time>2012-07-18T07:27:22Z</time>
      </trkpt>
      <trkpt lat="45.63241" lon="3.08417">
        <ele>648.38556</ele>
        <time>2012-07-18T07:27:28Z</time>
      </trkpt>
      <trkpt lat="45.63263" lon="3.08418">
        <ele>644.56805</ele>
        <time>2012-07-18T07:27:33Z</time>
      </trkpt>
      <trkpt lat="45.63283" lon="3.08422">
        <ele>641.39276</ele>
        <time>2012-07-18T07:27:36Z</time>
      </trkpt>
      <trkpt lat="45.63305" lon="3.08433">
        <ele>636.27466</ele>
        <time>2012-07-18T07:27:40Z</time>
      </trkpt>
      <trkpt lat="45.63324" lon="3.08439">
        <ele>625.6751</ele>
        <time>2012-07-18T07:27:49Z</time>
      </trkpt>
      <trkpt lat="45.63343" lon="3.08448">
        <ele>618.76514</ele>
        <time>2012-07-18T07:27:55Z</time>
      </trkpt>
      <trkpt lat="45.63362" lon="3.08458">
        <ele>617.3221</ele>
        <time>2012-07-18T07:28:02Z</time>
      </trkpt>
      <trkpt lat="45.63382" lon="3.08457">
        <ele>616.44763</ele>
        <time>2012-07-18T07:28:08Z</time>
      </trkpt>
      <trkpt lat="45.634" lon="3.08462">
        <ele>605.82764</ele>
        <time>2012-07-18T07:28:19Z</time>
      </trkpt>
      <trkpt lat="45.63421" lon="3.08468">
        <ele>605.9913</ele>
        <time>2012-07-18T07:28:25Z</time>
      </trkpt>
      <trkpt lat="45.63435" lon="3.08486">
        <ele>606.57275</ele>
        <time>2012-07-18T07:28:31Z</time>
      </trkpt>
      <trkpt lat="45.63446" lon="3.08507">
        <ele>607.6078</ele>
        <time>2012-07-18T07:28:35Z</time>
      </trkpt>
      <trkpt lat="45.63461" lon="3.08526">
        <ele>610.56824</ele>
        <time>2012-07-18T07:28:40Z</time>
      </trkpt>
      <trkpt lat="45.63472" lon="3.08549">
        <ele>613.99744</ele>
        <time>2012-07-18T07:28:50Z</time>
      </trkpt>
      <trkpt lat="45.63487" lon="3.08567">
        <ele>612.0563</ele>
        <time>2012-07-18T07:28:57Z</time>
      </trkpt>
      <trkpt lat="45.63499" lon="3.08587">
        <ele>608.3986</ele>
        <time>2012-07-18T07:29:02Z</time>
      </trkpt>
      <trkpt lat="45.63514" lon="3.08605">
        <ele>607.3627</ele>
        <time>2012-07-18T07:29:07Z</time>
      </trkpt>
      <trkpt lat="45.63533" lon="3.08619">
        <ele>607.0812</ele>
        <time>2012-07-18T07:29:13Z</time>
      </trkpt>
      <trkpt lat="45.6355" lon="3.08629">
        <ele>604.9007</ele>
        <time>2012-07-18T07:29:17Z</time>
      </trkpt>
      <trkpt lat="45.63565" lon="3.08651">
        <ele>601.4813</ele>
        <time>2012-07-18T07:29:24Z</time>
      </trkpt>
      <trkpt lat="45.63576" lon="3.08674">
        <ele>595.4508</ele>
        <time>2012-07-18T07:29:38Z</time>
      </trkpt>
      <trkpt lat="45.63589" lon="3.08692">
        <ele>602.2038</ele>
        <time>2012-07-18T07:29:47Z</time>
      </trkpt>
      <trkpt lat="45.63606" lon="3.08705">
        <ele>607.44476</ele>
        <time>2012-07-18T07:29:54Z</time>
      </trkpt>
      <trkpt lat="45.63624" lon="3.08711">
        <ele>612.5567</ele>
        <time>2012-07-18T07:29:59Z</time>
      </trkpt>
      <trkpt lat="45.63642" lon="3.08728">
        <ele>619.08026</ele>
        <time>2012-07-18T07:30:05Z</time>
      </trkpt>
      <trkpt lat="45.63658" lon="3.08742">
        <ele>622.7389</ele>
        <time>2012-07-18T07:30:10Z</time>
      </trkpt>
      <trkpt lat="45.63675" lon="3.08758">
        <ele>621.5799</ele>
        <time>2012-07-18T07:30:14Z</time>
      </trkpt>
      <trkpt lat="45.63689" lon="3.08784">
        <ele>621.9485</ele>
        <time>2012-07-18T07:30:20Z</time>
      </trkpt>
      <trkpt lat="45.63702" lon="3.08806">
        <ele>620.3182</ele>
        <time>2012-07-18T07:30:26Z</time>
      </trkpt>
      <trkpt lat="45.63719" lon="3.08817">
        <ele>617.76666</ele>
        <time>2012-07-18T07:30:32Z</time>
      </trkpt>
      <trkpt lat="45.63734" lon="3.08833">
        <ele>612.9504</ele>
        <time>2012-07-18T07:30:38Z</time>
      </trkpt>
      <trkpt lat="45.63744" lon="3.08855">
        <ele>608.59894</ele>
        <time>2012-07-18T07:30:45Z</time>
      </trkpt>
      <trkpt lat="45.63758" lon="3.08872">
        <ele>605.59235</ele>
        <time>2012-07-18T07:31:23Z</time>
      </trkpt>
      <trkpt lat="45.63771" lon="3.08892">
        <ele>602.2666</ele>
        <time>2012-07-18T07:31:31Z</time>
      </trkpt>
      <trkpt lat="45.63785" lon="3.08912">
        <ele>602.20123</ele>
        <time>2012-07-18T07:31:38Z</time>
      </trkpt>
      <trkpt lat="45.63799" lon="3.0893">
        <ele>600.4109</ele>
        <time>2012-07-18T07:31:44Z</time>
      </trkpt>
      <trkpt lat="45.63816" lon="3.08948">
        <ele>598.78253</ele>
        <time>2012-07-18T07:31:50Z</time>
      </trkpt>
      <trkpt lat="45.63831" lon="3.08965">
        <ele>597.95795</ele>
        <time>2012-07-18T07:31:55Z</time>
      </trkpt>
      <trkpt lat="45.63847" lon="3.08982">
        <ele>599.2663</ele>
        <time>2012-07-18T07:32:01Z</time>
      </trkpt>
      <trkpt lat="45.63867" lon="3.08984">
        <ele>599.7341</ele>
        <time>2012-07-18T07:32:07Z</time>
      </trkpt>
      <trkpt lat="45.63884" lon="3.08978">
        <ele>597.61835</ele>
        <time>2012-07-18T07:32:13Z</time>
      </trkpt>
      <trkpt lat="45.63904" lon="3.08974">
        <ele>598.73334</ele>
        <time>2012-07-18T07:32:18Z</time>
      </trkpt>
      <trkpt lat="45.63923" lon="3.08971">
        <ele>599.327</ele>
        <time>2012-07-18T07:32:24Z</time>
      </trkpt>
      <trkpt lat="45.63939" lon="3.08984">
        <ele>596.75684</ele>
        <time>2012-07-18T07:32:31Z</time>
      </trkpt>
      <trkpt lat="45.63948" lon="3.0901">
        <ele>594.08856</ele>
        <time>2012-07-18T07:32:38Z</time>
      </trkpt>
      <trkpt lat="45.63958" lon="3.09035">
        <ele>594.0141</ele>
        <time>2012-07-18T07:32:45Z</time>
      </trkpt>
      <trkpt lat="45.63971" lon="3.09058">
        <ele>592.75793</ele>
        <time>2012-07-18T07:32:52Z</time>
      </trkpt>
      <trkpt lat="45.63982" lon="3.0908">
        <ele>590.9297</ele>
        <time>2012-07-18T07:32:59Z</time>
      </trkpt>
      <trkpt lat="45.63987" lon="3.09105">
        <ele>590.1835</ele>
        <time>2012-07-18T07:33:05Z</time>
      </trkpt>
      <trkpt lat="45.63983" lon="3.09134">
        <ele>590.87286</ele>
        <time>2012-07-18T07:33:12Z</time>
      </trkpt>
      <trkpt lat="45.63968" lon="3.09151">
        <ele>591.4003</ele>
        <time>2012-07-18T07:33:18Z</time>
      </trkpt>
      <trkpt lat="45.63956" lon="3.09171">
        <ele>591.84656</ele>
        <time>2012-07-18T07:33:25Z</time>
      </trkpt>
      <trkpt lat="45.63964" lon="3.09197">
        <ele>591.4041</ele>
        <time>2012-07-18T07:33:32Z</time>
      </trkpt>
      <trkpt lat="45.63978" lon="3.09215">
        <ele>592.26025</ele>
        <time>2012-07-18T07:33:39Z</time>
      </trkpt>
      <trkpt lat="45.63993" lon="3.09234">
        <ele>591.5554</ele>
        <time>2012-07-18T07:33:46Z</time>
      </trkpt>
      <trkpt lat="45.64011" lon="3.09246">
        <ele>593.0011</ele>
        <time>2012-07-18T07:33:54Z</time>
      </trkpt>
      <trkpt lat="45.64027" lon="3.09258">
        <ele>594.32935</ele>
        <time>2012-07-18T07:34:02Z</time>
      </trkpt>
      <trkpt lat="45.64033" lon="3.09282">
        <ele>594.425</ele>
        <time>2012-07-18T07:34:11Z</time>
      </trkpt>
      <trkpt lat="45.64032" lon="3.09308">
        <ele>595.9493</ele>
        <time>2012-07-18T07:34:20Z</time>
      </trkpt>
      <trkpt lat="45.64027" lon="3.09335">
        <ele>597.56226</ele>
        <time>2012-07-18T07:34:30Z</time>
      </trkpt>
      <trkpt lat="45.64021" lon="3.09361">
        <ele>598.7428</ele>
        <time>2012-07-18T07:34:40Z</time>
      </trkpt>
      <trkpt lat="45.6402" lon="3.09389">
        <ele>600.6953</ele>
        <time>2012-07-18T07:34:51Z</time>
      </trkpt>
      <trkpt lat="45.64019" lon="3.09416">
        <ele>603.554</ele>
        <time>2012-07-18T07:35:01Z</time>
      </trkpt>
      <trkpt lat="45.6402" lon="3.09443">
        <ele>606.3381</ele>
        <time>2012-07-18T07:35:12Z</time>
      </trkpt>
      <trkpt lat="45.64022" lon="3.0947">
        <ele>606.9912</ele>
        <time>2012-07-18T07:35:24Z</time>
      </trkpt>
      <trkpt lat="45.64026" lon="3.09496">
        <ele>609.21643</ele>
        <time>2012-07-18T07:35:36Z</time>
      </trkpt>
      <trkpt lat="45.6403" lon="3.09521">
        <ele>610.25507</ele>
        <time>2012-07-18T07:35:47Z</time>
      </trkpt>
      <trkpt lat="45.64036" lon="3.09547">
        <ele>612.249</ele>
        <time>2012-07-18T07:35:59Z</time>
      </trkpt>
      <trkpt lat="45.6404" lon="3.09573">
        <ele>613.4408</ele>
        <time>2012-07-18T07:36:10Z</time>
      </trkpt>
      <trkpt lat="45.64046" lon="3.09597">
        <ele>614.6295</ele>
        <time>2012-07-18T07:36:21Z</time>
      </trkpt>
      <trkpt lat="45.64057" lon="3.0962">
        <ele>615.9217</ele>
        <time>2012-07-18T07:36:31Z</time>
      </trkpt>
      <trkpt lat="45.64069" lon="3.09642">
        <ele>617.4726</ele>
        <time>2012-07-18T07:36:40Z</time>
      </trkpt>
      <trkpt lat="45.64083" lon="3.09664">
        <ele>618.73706</ele>
        <time>2012-07-18T07:36:48Z</time>
      </trkpt>
      <trkpt lat="45.64096" lon="3.09684">
        <ele>618.9536</ele>
        <time>2012-07-18T07:36:55Z</time>
      </trkpt>
      <trkpt lat="45.64108" lon="3.09705">
        <ele>619.8726</ele>
        <time>2012-07-18T07:37:02Z</time>
      </trkpt>
      <trkpt lat="45.6412" lon="3.09726">
        <ele>620.0963</ele>
        <time>2012-07-18T07:37:09Z</time>
      </trkpt>
      <trkpt lat="45.64131" lon="3.0975">
        <ele>618.49493</ele>
        <time>2012-07-18T07:37:16Z</time>
      </trkpt>
      <trkpt lat="45.64141" lon="3.09774">
        <ele>619.1942</ele>
        <time>2012-07-18T07:37:23Z</time>
      </trkpt>
      <trkpt lat="45.6415" lon="3.09797">
        <ele>619.70844</ele>
        <time>2012-07-18T07:37:30Z</time>
      </trkpt>
      <trkpt lat="45.64157" lon="3.09824">
        <ele>621.52167</ele>
        <time>2012-07-18T07:37:38Z</time>
      </trkpt>
      <trkpt lat="45.64162" lon="3.09851">
        <ele>622.6497</ele>
        <time>2012-07-18T07:37:45Z</time>
      </trkpt>
      <trkpt lat="45.64168" lon="3.09878">
        <ele>626.36993</ele>
        <time>2012-07-18T07:37:52Z</time>
      </trkpt>
      <trkpt lat="45.64172" lon="3.09905">
        <ele>625.9442</ele>
        <time>2012-07-18T07:37:59Z</time>
      </trkpt>
      <trkpt lat="45.64174" lon="3.09933">
        <ele>622.9191</ele>
        <time>2012-07-18T07:38:06Z</time>
      </trkpt>
      <trkpt lat="45.64176" lon="3.09963">
        <ele>624.8228</ele>
        <time>2012-07-18T07:38:12Z</time>
      </trkpt>
      <trkpt lat="45.64175" lon="3.09991">
        <ele>627.0396</ele>
        <time>2012-07-18T07:38:18Z</time>
      </trkpt>
      <trkpt lat="45.64176" lon="3.1002">
        <ele>629.5519</ele>
        <time>2012-07-18T07:38:24Z</time>
      </trkpt>
      <trkpt lat="45.64176" lon="3.10048">
        <ele>630.60956</ele>
        <time>2012-07-18T07:38:30Z</time>
      </trkpt>
      <trkpt lat="45.64176" lon="3.10075">
        <ele>631.66406</ele>
        <time>2012-07-18T07:38:36Z</time>
      </trkpt>
      <trkpt lat="45.64175" lon="3.10104">
        <ele>632.5578</ele>
        <time>2012-07-18T07:38:43Z</time>
      </trkpt>
      <trkpt lat="45.64176" lon="3.10132">
        <ele>633.83795</ele>
        <time>2012-07-18T07:38:50Z</time>
      </trkpt>
      <trkpt lat="45.64176" lon="3.1016">
        <ele>634.9102</ele>
        <time>2012-07-18T07:38:58Z</time>
      </trkpt>
      <trkpt lat="45.64176" lon="3.10189">
        <ele>635.596</ele>
        <time>2012-07-18T07:39:06Z</time>
      </trkpt>
      <trkpt lat="45.64175" lon="3.10215">
        <ele>637.03705</ele>
        <time>2012-07-18T07:39:15Z</time>
      </trkpt>
      <trkpt lat="45.64181" lon="3.1024">
        <ele>638.0663</ele>
        <time>2012-07-18T07:41:36Z</time>
      </trkpt>
      <trkpt lat="45.64189" lon="3.10263">
        <ele>638.8916</ele>
        <time>2012-07-18T07:41:43Z</time>
      </trkpt>
      <trkpt lat="45.64196" lon="3.10291">
        <ele>638.7675</ele>
        <time>2012-07-18T07:41:52Z</time>
      </trkpt>
      <trkpt lat="45.64203" lon="3.10316">
        <ele>638.5924</ele>
        <time>2012-07-18T07:41:59Z</time>
      </trkpt>
      <trkpt lat="45.64211" lon="3.10343">
        <ele>638.95746</ele>
        <time>2012-07-18T07:42:06Z</time>
      </trkpt>
      <trkpt lat="45.64218" lon="3.10368">
        <ele>639.85394</ele>
        <time>2012-07-18T07:42:12Z</time>
      </trkpt>
      <trkpt lat="45.64226" lon="3.10395">
        <ele>639.706</ele>
        <time>2012-07-18T07:42:18Z</time>
      </trkpt>
      <trkpt lat="45.64232" lon="3.10422">
        <ele>640.2568</ele>
        <time>2012-07-18T07:42:24Z</time>
      </trkpt>
      <trkpt lat="45.64239" lon="3.10451">
        <ele>641.52924</ele>
        <time>2012-07-18T07:42:30Z</time>
      </trkpt>
      <trkpt lat="45.64248" lon="3.10478">
        <ele>642.0856</ele>
        <time>2012-07-18T07:42:35Z</time>
      </trkpt>
      <trkpt lat="45.64256" lon="3.10504">
        <ele>642.01904</ele>
        <time>2012-07-18T07:42:40Z</time>
      </trkpt>
      <trkpt lat="45.64263" lon="3.10528">
        <ele>642.0122</ele>
        <time>2012-07-18T07:42:45Z</time>
      </trkpt>
      <trkpt lat="45.64271" lon="3.10554">
        <ele>642.0023</ele>
        <time>2012-07-18T07:42:50Z</time>
      </trkpt>
      <trkpt lat="45.64279" lon="3.10579">
        <ele>641.3186</ele>
        <time>2012-07-18T07:42:55Z</time>
      </trkpt>
      <trkpt lat="45.64287" lon="3.10607">
        <ele>640.5209</ele>
        <time>2012-07-18T07:43:01Z</time>
      </trkpt>
      <trkpt lat="45.64292" lon="3.10636">
        <ele>640.09424</ele>
        <time>2012-07-18T07:43:07Z</time>
      </trkpt>
      <trkpt lat="45.64298" lon="3.10664">
        <ele>639.15173</ele>
        <time>2012-07-18T07:43:12Z</time>
      </trkpt>
      <trkpt lat="45.64303" lon="3.10694">
        <ele>638.2144</ele>
        <time>2012-07-18T07:43:17Z</time>
      </trkpt>
      <trkpt lat="45.64309" lon="3.10721">
        <ele>637.34894</ele>
        <time>2012-07-18T07:43:22Z</time>
      </trkpt>
      <trkpt lat="45.64315" lon="3.10749">
        <ele>636.56366</ele>
        <time>2012-07-18T07:43:27Z</time>
      </trkpt>
      <trkpt lat="45.64323" lon="3.10772">
        <ele>635.56976</ele>
        <time>2012-07-18T07:43:31Z</time>
      </trkpt>
      <trkpt lat="45.64327" lon="3.10798">
        <ele>634.5701</ele>
        <time>2012-07-18T07:43:35Z</time>
      </trkpt>
      <trkpt lat="45.64327" lon="3.10828">
        <ele>633.5418</ele>
        <time>2012-07-18T07:43:41Z</time>
      </trkpt>
      <trkpt lat="45.64338" lon="3.10856">
        <ele>632.09204</ele>
        <time>2012-07-18T07:43:46Z</time>
      </trkpt>
      <trkpt lat="45.64342" lon="3.10887">
        <ele>630.39667</ele>
        <time>2012-07-18T07:43:50Z</time>
      </trkpt>
      <trkpt lat="45.64347" lon="3.10914">
        <ele>629.2564</ele>
        <time>2012-07-18T07:43:53Z</time>
      </trkpt>
      <trkpt lat="45.64351" lon="3.10942">
        <ele>628.2097</ele>
        <time>2012-07-18T07:43:56Z</time>
      </trkpt>
      <trkpt lat="45.64357" lon="3.10971">
        <ele>626.67755</ele>
        <time>2012-07-18T07:43:59Z</time>
      </trkpt>
      <trkpt lat="45.64362" lon="3.11002">
        <ele>625.19366</ele>
        <time>2012-07-18T07:44:02Z</time>
      </trkpt>
      <trkpt lat="45.64368" lon="3.11034">
        <ele>623.69104</ele>
        <time>2012-07-18T07:44:05Z</time>
      </trkpt>
      <trkpt lat="45.64373" lon="3.11066">
        <ele>621.8759</ele>
        <time>2012-07-18T07:44:08Z</time>
      </trkpt>
      <trkpt lat="45.64378" lon="3.11096">
        <ele>620.08356</ele>
        <time>2012-07-18T07:44:11Z</time>
      </trkpt>
      <trkpt lat="45.64382" lon="3.11122">
        <ele>618.4681</ele>
        <time>2012-07-18T07:44:14Z</time>
      </trkpt>
      <trkpt lat="45.64388" lon="3.11154">
        <ele>616.6786</ele>
        <time>2012-07-18T07:44:18Z</time>
      </trkpt>
      <trkpt lat="45.64393" lon="3.11183">
        <ele>614.90924</ele>
        <time>2012-07-18T07:44:22Z</time>
      </trkpt>
      <trkpt lat="45.64389" lon="3.11211">
        <ele>613.38806</ele>
        <time>2012-07-18T07:44:27Z</time>
      </trkpt>
      <trkpt lat="45.64381" lon="3.1124">
        <ele>612.48096</ele>
        <time>2012-07-18T07:44:31Z</time>
      </trkpt>
      <trkpt lat="45.64374" lon="3.11272">
        <ele>611.0194</ele>
        <time>2012-07-18T07:44:35Z</time>
      </trkpt>
      <trkpt lat="45.6436" lon="3.11299">
        <ele>609.1389</ele>
        <time>2012-07-18T07:44:39Z</time>
      </trkpt>
      <trkpt lat="45.64351" lon="3.11323">
        <ele>608.0256</ele>
        <time>2012-07-18T07:44:43Z</time>
      </trkpt>
      <trkpt lat="45.64348" lon="3.11348">
        <ele>607.1507</ele>
        <time>2012-07-18T07:44:47Z</time>
      </trkpt>
      <trkpt lat="45.64348" lon="3.11375">
        <ele>606.4383</ele>
        <time>2012-07-18T07:44:51Z</time>
      </trkpt>
      <trkpt lat="45.64356" lon="3.114">
        <ele>605.2328</ele>
        <time>2012-07-18T07:44:54Z</time>
      </trkpt>
      <trkpt lat="45.64369" lon="3.11422">
        <ele>603.8701</ele>
        <time>2012-07-18T07:44:58Z</time>
      </trkpt>
      <trkpt lat="45.64369" lon="3.11448">
        <ele>602.5577</ele>
        <time>2012-07-18T07:45:01Z</time>
      </trkpt>
      <trkpt lat="45.64365" lon="3.1148">
        <ele>601.41046</ele>
        <time>2012-07-18T07:45:05Z</time>
      </trkpt>
      <trkpt lat="45.6436" lon="3.11507">
        <ele>600.71735</ele>
        <time>2012-07-18T07:45:09Z</time>
      </trkpt>
      <trkpt lat="45.64354" lon="3.11533">
        <ele>600.12537</ele>
        <time>2012-07-18T07:45:15Z</time>
      </trkpt>
      <trkpt lat="45.64357" lon="3.1156">
        <ele>598.68713</ele>
        <time>2012-07-18T07:45:22Z</time>
      </trkpt>
      <trkpt lat="45.64358" lon="3.1159">
        <ele>597.83386</ele>
        <time>2012-07-18T07:45:27Z</time>
      </trkpt>
      <trkpt lat="45.64357" lon="3.11618">
        <ele>596.94507</ele>
        <time>2012-07-18T07:45:31Z</time>
      </trkpt>
      <trkpt lat="45.64356" lon="3.11645">
        <ele>595.77405</ele>
        <time>2012-07-18T07:45:35Z</time>
      </trkpt>
      <trkpt lat="45.64354" lon="3.11672">
        <ele>595.12854</ele>
        <time>2012-07-18T07:45:39Z</time>
      </trkpt>
      <trkpt lat="45.64351" lon="3.117">
        <ele>594.8141</ele>
        <time>2012-07-18T07:45:43Z</time>
      </trkpt>
      <trkpt lat="45.64349" lon="3.11727">
        <ele>594.299</ele>
        <time>2012-07-18T07:45:47Z</time>
      </trkpt>
      <trkpt lat="45.64346" lon="3.11755">
        <ele>593.89575</ele>
        <time>2012-07-18T07:45:51Z</time>
      </trkpt>
      <trkpt lat="45.64342" lon="3.11782">
        <ele>593.0104</ele>
        <time>2012-07-18T07:45:55Z</time>
      </trkpt>
      <trkpt lat="45.64339" lon="3.11809">
        <ele>592.60736</ele>
        <time>2012-07-18T07:46:00Z</time>
      </trkpt>
      <trkpt lat="45.64337" lon="3.11838">
        <ele>593.3117</ele>
        <time>2012-07-18T07:46:05Z</time>
      </trkpt>
      <trkpt lat="45.64332" lon="3.11866">
        <ele>594.6218</ele>
        <time>2012-07-18T07:46:10Z</time>
      </trkpt>
      <trkpt lat="45.64319" lon="3.11887">
        <ele>595.84235</ele>
        <time>2012-07-18T07:46:18Z</time>
      </trkpt>
      <trkpt lat="45.64305" lon="3.11905">
        <ele>597.1134</ele>
        <time>2012-07-18T07:46:26Z</time>
      </trkpt>
      <trkpt lat="45.64291" lon="3.11926">
        <ele>597.5848</ele>
        <time>2012-07-18T07:46:34Z</time>
      </trkpt>
      <trkpt lat="45.64276" lon="3.11944">
        <ele>597.80084</ele>
        <time>2012-07-18T07:46:42Z</time>
      </trkpt>
      <trkpt lat="45.64264" lon="3.11963">
        <ele>597.76697</ele>
        <time>2012-07-18T07:46:49Z</time>
      </trkpt>
      <trkpt lat="45.64256" lon="3.11986">
        <ele>597.6872</ele>
        <time>2012-07-18T07:46:56Z</time>
      </trkpt>
      <trkpt lat="45.64248" lon="3.12012">
        <ele>597.89734</ele>
        <time>2012-07-18T07:47:03Z</time>
      </trkpt>
      <trkpt lat="45.64241" lon="3.12036">
        <ele>598.46655</ele>
        <time>2012-07-18T07:47:10Z</time>
      </trkpt>
      <trkpt lat="45.64234" lon="3.12062">
        <ele>597.906</ele>
        <time>2012-07-18T07:47:16Z</time>
      </trkpt>
      <trkpt lat="45.64224" lon="3.12089">
        <ele>596.9198</ele>
        <time>2012-07-18T07:47:21Z</time>
      </trkpt>
      <trkpt lat="45.6421" lon="3.12106">
        <ele>592.9259</ele>
        <time>2012-07-18T07:47:31Z</time>
      </trkpt>
      <trkpt lat="45.64199" lon="3.12084">
        <ele>592.8159</ele>
        <time>2012-07-18T07:47:41Z</time>
      </trkpt>
      <trkpt lat="45.64187" lon="3.12064">
        <ele>593.9437</ele>
        <time>2012-07-18T07:47:50Z</time>
      </trkpt>
      <trkpt lat="45.64176" lon="3.12041">
        <ele>596.7422</ele>
        <time>2012-07-18T07:48:02Z</time>
      </trkpt>
      <trkpt lat="45.64161" lon="3.12026">
        <ele>602.88214</ele>
        <time>2012-07-18T07:48:21Z</time>
      </trkpt>
      <trkpt lat="45.64151" lon="3.12003">
        <ele>607.0542</ele>
        <time>2012-07-18T07:48:34Z</time>
      </trkpt>
      <trkpt lat="45.64143" lon="3.11976">
        <ele>604.13153</ele>
        <time>2012-07-18T07:48:49Z</time>
      </trkpt>
      <trkpt lat="45.6413" lon="3.11958">
        <ele>611.0179</ele>
        <time>2012-07-18T07:49:02Z</time>
      </trkpt>
      <trkpt lat="45.64112" lon="3.11951">
        <ele>612.2771</ele>
        <time>2012-07-18T07:49:15Z</time>
      </trkpt>
      <trkpt lat="45.641" lon="3.1193">
        <ele>610.1548</ele>
        <time>2012-07-18T07:49:29Z</time>
      </trkpt>
      <trkpt lat="45.64093" lon="3.11906">
        <ele>610.69824</ele>
        <time>2012-07-18T07:49:45Z</time>
      </trkpt>
      <trkpt lat="45.64087" lon="3.11881">
        <ele>613.79803</ele>
        <time>2012-07-18T07:49:58Z</time>
      </trkpt>
      <trkpt lat="45.64083" lon="3.11854">
        <ele>616.56775</ele>
        <time>2012-07-18T07:50:10Z</time>
      </trkpt>
      <trkpt lat="45.64072" lon="3.11832">
        <ele>620.63965</ele>
        <time>2012-07-18T07:50:21Z</time>
      </trkpt>
      <trkpt lat="45.6406" lon="3.11809">
        <ele>622.08746</ele>
        <time>2012-07-18T07:50:34Z</time>
      </trkpt>
      <trkpt lat="45.64048" lon="3.11788">
        <ele>623.2071</ele>
        <time>2012-07-18T07:50:46Z</time>
      </trkpt>
      <trkpt lat="45.64036" lon="3.11767">
        <ele>624.2596</ele>
        <time>2012-07-18T07:50:57Z</time>
      </trkpt>
      <trkpt lat="45.64029" lon="3.11742">
        <ele>625.7751</ele>
        <time>2012-07-18T07:51:09Z</time>
      </trkpt>
      <trkpt lat="45.64013" lon="3.11729">
        <ele>626.47235</ele>
        <time>2012-07-18T07:54:54Z</time>
      </trkpt>
      <trkpt lat="45.63993" lon="3.11742">
        <ele>626.0959</ele>
        <time>2012-07-18T07:54:59Z</time>
      </trkpt>
      <trkpt lat="45.6397" lon="3.11753">
        <ele>624.9104</ele>
        <time>2012-07-18T07:55:03Z</time>
      </trkpt>
      <trkpt lat="45.6395" lon="3.1176">
        <ele>624.2044</ele>
        <time>2012-07-18T07:55:06Z</time>
      </trkpt>
      <trkpt lat="45.63928" lon="3.11763">
        <ele>623.12213</ele>
        <time>2012-07-18T07:55:09Z</time>
      </trkpt>
      <trkpt lat="45.63905" lon="3.11767">
        <ele>622.02496</ele>
        <time>2012-07-18T07:55:12Z</time>
      </trkpt>
      <trkpt lat="45.63881" lon="3.1178">
        <ele>620.6699</ele>
        <time>2012-07-18T07:55:15Z</time>
      </trkpt>
      <trkpt lat="45.63864" lon="3.11792">
        <ele>619.40186</ele>
        <time>2012-07-18T07:55:17Z</time>
      </trkpt>
      <trkpt lat="45.63843" lon="3.11807">
        <ele>617.95233</ele>
        <time>2012-07-18T07:55:20Z</time>
      </trkpt>
      <trkpt lat="45.63827" lon="3.11824">
        <ele>616.8111</ele>
        <time>2012-07-18T07:55:24Z</time>
      </trkpt>
      <trkpt lat="45.63818" lon="3.11848">
        <ele>619.9553</ele>
        <time>2012-07-18T07:55:39Z</time>
      </trkpt>
      <trkpt lat="45.63808" lon="3.11874">
        <ele>621.08875</ele>
        <time>2012-07-18T07:55:45Z</time>
      </trkpt>
      <trkpt lat="45.63797" lon="3.11899">
        <ele>621.3273</ele>
        <time>2012-07-18T07:55:49Z</time>
      </trkpt>
      <trkpt lat="45.63781" lon="3.11913">
        <ele>621.6446</ele>
        <time>2012-07-18T07:55:53Z</time>
      </trkpt>
      <trkpt lat="45.6376" lon="3.11928">
        <ele>621.0411</ele>
        <time>2012-07-18T07:55:57Z</time>
      </trkpt>
      <trkpt lat="45.63743" lon="3.11944">
        <ele>619.0439</ele>
        <time>2012-07-18T07:56:00Z</time>
      </trkpt>
      <trkpt lat="45.63729" lon="3.11969">
        <ele>617.5326</ele>
        <time>2012-07-18T07:56:03Z</time>
      </trkpt>
      <trkpt lat="45.63714" lon="3.11989">
        <ele>616.1403</ele>
        <time>2012-07-18T07:56:06Z</time>
      </trkpt>
      <trkpt lat="45.63701" lon="3.12012">
        <ele>614.4327</ele>
        <time>2012-07-18T07:56:10Z</time>
      </trkpt>
      <trkpt lat="45.6369" lon="3.12037">
        <ele>614.97205</ele>
        <time>2012-07-18T07:56:14Z</time>
      </trkpt>
      <trkpt lat="45.63672" lon="3.12048">
        <ele>615.129</ele>
        <time>2012-07-18T07:56:18Z</time>
      </trkpt>
      <trkpt lat="45.63655" lon="3.12064">
        <ele>616.79504</ele>
        <time>2012-07-18T07:56:25Z</time>
      </trkpt>
      <trkpt lat="45.63643" lon="3.12087">
        <ele>617.7425</ele>
        <time>2012-07-18T07:56:32Z</time>
      </trkpt>
      <trkpt lat="45.63634" lon="3.12109">
        <ele>618.9539</ele>
        <time>2012-07-18T07:56:37Z</time>
      </trkpt>
      <trkpt lat="45.63621" lon="3.12129">
        <ele>619.62646</ele>
        <time>2012-07-18T07:56:41Z</time>
      </trkpt>
      <trkpt lat="45.63608" lon="3.12148">
        <ele>620.38763</ele>
        <time>2012-07-18T07:56:46Z</time>
      </trkpt>
      <trkpt lat="45.63594" lon="3.1217">
        <ele>623.39246</ele>
        <time>2012-07-18T07:56:53Z</time>
      </trkpt>
      <trkpt lat="45.63583" lon="3.1219">
        <ele>621.6508</ele>
        <time>2012-07-18T07:56:59Z</time>
      </trkpt>
      <trkpt lat="45.63574" lon="3.12217">
        <ele>620.39667</ele>
        <time>2012-07-18T07:57:05Z</time>
      </trkpt>
      <trkpt lat="45.63564" lon="3.12243">
        <ele>622.2611</ele>
        <time>2012-07-18T07:57:11Z</time>
      </trkpt>
      <trkpt lat="45.63557" lon="3.1227">
        <ele>624.3516</ele>
        <time>2012-07-18T07:57:19Z</time>
      </trkpt>
      <trkpt lat="45.63548" lon="3.12293">
        <ele>623.57007</ele>
        <time>2012-07-18T07:57:25Z</time>
      </trkpt>
      <trkpt lat="45.63538" lon="3.12317">
        <ele>616.53705</ele>
        <time>2012-07-18T07:58:57Z</time>
      </trkpt>
      <trkpt lat="45.63522" lon="3.1233">
        <ele>617.98016</ele>
        <time>2012-07-18T07:59:06Z</time>
      </trkpt>
      <trkpt lat="45.63504" lon="3.12344">
        <ele>619.882</ele>
        <time>2012-07-18T07:59:15Z</time>
      </trkpt>
      <trkpt lat="45.63485" lon="3.12349">
        <ele>619.69183</ele>
        <time>2012-07-18T07:59:23Z</time>
      </trkpt>
      <trkpt lat="45.63466" lon="3.12353">
        <ele>619.99286</ele>
        <time>2012-07-18T07:59:32Z</time>
      </trkpt>
      <trkpt lat="45.63448" lon="3.12359">
        <ele>621.0961</ele>
        <time>2012-07-18T07:59:42Z</time>
      </trkpt>
      <trkpt lat="45.6343" lon="3.12368">
        <ele>620.98914</ele>
        <time>2012-07-18T07:59:53Z</time>
      </trkpt>
      <trkpt lat="45.63411" lon="3.12375">
        <ele>621.3763</ele>
        <time>2012-07-18T08:00:02Z</time>
      </trkpt>
      <trkpt lat="45.63391" lon="3.1238">
        <ele>622.6402</ele>
        <time>2012-07-18T08:00:11Z</time>
      </trkpt>
      <trkpt lat="45.63373" lon="3.12383">
        <ele>624.19916</ele>
        <time>2012-07-18T08:00:18Z</time>
      </trkpt>
      <trkpt lat="45.63354" lon="3.12386">
        <ele>624.71185</ele>
        <time>2012-07-18T08:00:26Z</time>
      </trkpt>
      <trkpt lat="45.63335" lon="3.12387">
        <ele>624.7959</ele>
        <time>2012-07-18T08:00:34Z</time>
      </trkpt>
      <trkpt lat="45.63316" lon="3.1239">
        <ele>625.8579</ele>
        <time>2012-07-18T08:00:42Z</time>
      </trkpt>
      <trkpt lat="45.63298" lon="3.12393">
        <ele>626.796</ele>
        <time>2012-07-18T08:00:51Z</time>
      </trkpt>
      <trkpt lat="45.63279" lon="3.12399">
        <ele>628.935</ele>
        <time>2012-07-18T08:01:00Z</time>
      </trkpt>
      <trkpt lat="45.63259" lon="3.12398">
        <ele>630.6685</ele>
        <time>2012-07-18T08:01:08Z</time>
      </trkpt>
      <trkpt lat="45.63239" lon="3.124">
        <ele>631.2545</ele>
        <time>2012-07-18T08:01:17Z</time>
      </trkpt>
      <trkpt lat="45.6322" lon="3.12392">
        <ele>631.53296</ele>
        <time>2012-07-18T08:01:27Z</time>
      </trkpt>
      <trkpt lat="45.63202" lon="3.12381">
        <ele>633.06177</ele>
        <time>2012-07-18T08:01:38Z</time>
      </trkpt>
      <trkpt lat="45.63185" lon="3.12376">
        <ele>636.5196</ele>
        <time>2012-07-18T08:01:49Z</time>
      </trkpt>
      <trkpt lat="45.63166" lon="3.12373">
        <ele>638.88</ele>
        <time>2012-07-18T08:02:01Z</time>
      </trkpt>
      <trkpt lat="45.63147" lon="3.12372">
        <ele>637.9891</ele>
        <time>2012-07-18T08:02:11Z</time>
      </trkpt>
      <trkpt lat="45.63128" lon="3.12374">
        <ele>639.2202</ele>
        <time>2012-07-18T08:02:21Z</time>
      </trkpt>
      <trkpt lat="45.63109" lon="3.12371">
        <ele>641.1502</ele>
        <time>2012-07-18T08:02:31Z</time>
      </trkpt>
      <trkpt lat="45.63095" lon="3.12352">
        <ele>641.7632</ele>
        <time>2012-07-18T08:02:42Z</time>
      </trkpt>
      <trkpt lat="45.63077" lon="3.12343">
        <ele>642.59814</ele>
        <time>2012-07-18T08:02:55Z</time>
      </trkpt>
      <trkpt lat="45.63058" lon="3.12341">
        <ele>643.9242</ele>
        <time>2012-07-18T08:03:06Z</time>
      </trkpt>
      <trkpt lat="45.63039" lon="3.1234">
        <ele>644.6494</ele>
        <time>2012-07-18T08:03:16Z</time>
      </trkpt>
      <trkpt lat="45.6302" lon="3.12342">
        <ele>645.4825</ele>
        <time>2012-07-18T08:03:26Z</time>
      </trkpt>
      <trkpt lat="45.63002" lon="3.12342">
        <ele>645.7268</ele>
        <time>2012-07-18T08:03:35Z</time>
      </trkpt>
      <trkpt lat="45.62982" lon="3.12347">
        <ele>647.20935</ele>
        <time>2012-07-18T08:03:44Z</time>
      </trkpt>
      <trkpt lat="45.62964" lon="3.12351">
        <ele>647.35046</ele>
        <time>2012-07-18T08:03:53Z</time>
      </trkpt>
      <trkpt lat="45.62945" lon="3.12354">
        <ele>647.2438</ele>
        <time>2012-07-18T08:04:02Z</time>
      </trkpt>
      <trkpt lat="45.62926" lon="3.12354">
        <ele>648.518</ele>
        <time>2012-07-18T08:04:12Z</time>
      </trkpt>
      <trkpt lat="45.62907" lon="3.12351">
        <ele>650.73804</ele>
        <time>2012-07-18T08:04:21Z</time>
      </trkpt>
      <trkpt lat="45.62889" lon="3.12351">
        <ele>653.47723</ele>
        <time>2012-07-18T08:04:31Z</time>
      </trkpt>
      <trkpt lat="45.62873" lon="3.12363">
        <ele>656.2616</ele>
        <time>2012-07-18T08:04:41Z</time>
      </trkpt>
      <trkpt lat="45.62857" lon="3.12378">
        <ele>658.23114</ele>
        <time>2012-07-18T08:04:50Z</time>
      </trkpt>
      <trkpt lat="45.6284" lon="3.12391">
        <ele>657.1193</ele>
        <time>2012-07-18T08:05:01Z</time>
      </trkpt>
      <trkpt lat="45.62824" lon="3.12408">
        <ele>661.1378</ele>
        <time>2012-07-18T08:05:10Z</time>
      </trkpt>
      <trkpt lat="45.6281" lon="3.12425">
        <ele>665.36554</ele>
        <time>2012-07-18T08:05:19Z</time>
      </trkpt>
      <trkpt lat="45.62793" lon="3.12439">
        <ele>666.69244</ele>
        <time>2012-07-18T08:05:28Z</time>
      </trkpt>
      <trkpt lat="45.62779" lon="3.12457">
        <ele>665.83417</ele>
        <time>2012-07-18T08:05:34Z</time>
      </trkpt>
      <trkpt lat="45.62766" lon="3.12478">
        <ele>664.8018</ele>
        <time>2012-07-18T08:05:38Z</time>
      </trkpt>
      <trkpt lat="45.6275" lon="3.12494">
        <ele>663.382</ele>
        <time>2012-07-18T08:05:41Z</time>
      </trkpt>
      <trkpt lat="45.62734" lon="3.12508">
        <ele>661.99396</ele>
        <time>2012-07-18T08:05:44Z</time>
      </trkpt>
      <trkpt lat="45.62717" lon="3.12518">
        <ele>660.44904</ele>
        <time>2012-07-18T08:05:47Z</time>
      </trkpt>
      <trkpt lat="45.62696" lon="3.12528">
        <ele>660.4253</ele>
        <time>2012-07-18T08:05:51Z</time>
      </trkpt>
      <trkpt lat="45.62678" lon="3.12529">
        <ele>659.7023</ele>
        <time>2012-07-18T08:05:57Z</time>
      </trkpt>
      <trkpt lat="45.62659" lon="3.12526">
        <ele>659.03723</ele>
        <time>2012-07-18T08:06:04Z</time>
      </trkpt>
      <trkpt lat="45.62637" lon="3.12526">
        <ele>658.5362</ele>
        <time>2012-07-18T08:06:10Z</time>
      </trkpt>
      <trkpt lat="45.62616" lon="3.12523">
        <ele>656.9691</ele>
        <time>2012-07-18T08:06:16Z</time>
      </trkpt>
      <trkpt lat="45.62597" lon="3.12525">
        <ele>656.18756</ele>
        <time>2012-07-18T08:06:21Z</time>
      </trkpt>
      <trkpt lat="45.62576" lon="3.12529">
        <ele>655.5477</ele>
        <time>2012-07-18T08:06:26Z</time>
      </trkpt>
      <trkpt lat="45.62555" lon="3.12532">
        <ele>654.1805</ele>
        <time>2012-07-18T08:06:32Z</time>
      </trkpt>
      <trkpt lat="45.62533" lon="3.1253">
        <ele>653.99567</ele>
        <time>2012-07-18T08:06:38Z</time>
      </trkpt>
      <trkpt lat="45.62516" lon="3.12525">
        <ele>654.4842</ele>
        <time>2012-07-18T08:06:43Z</time>
      </trkpt>
      <trkpt lat="45.62496" lon="3.12516">
        <ele>654.62146</ele>
        <time>2012-07-18T08:06:49Z</time>
      </trkpt>
      <trkpt lat="45.62477" lon="3.12507">
        <ele>654.3795</ele>
        <time>2012-07-18T08:06:54Z</time>
      </trkpt>
      <trkpt lat="45.62458" lon="3.12498">
        <ele>653.58716</ele>
        <time>2012-07-18T08:06:59Z</time>
      </trkpt>
      <trkpt lat="45.62438" lon="3.1249">
        <ele>652.644</ele>
        <time>2012-07-18T08:07:03Z</time>
      </trkpt>
      <trkpt lat="45.62415" lon="3.1248">
        <ele>650.5854</ele>
        <time>2012-07-18T08:07:07Z</time>
      </trkpt>
      <trkpt lat="45.62396" lon="3.12471">
        <ele>648.86414</ele>
        <time>2012-07-18T08:07:10Z</time>
      </trkpt>
      <trkpt lat="45.62374" lon="3.12461">
        <ele>647.2427</ele>
        <time>2012-07-18T08:07:13Z</time>
      </trkpt>
      <trkpt lat="45.62354" lon="3.12451">
        <ele>645.9774</ele>
        <time>2012-07-18T08:07:16Z</time>
      </trkpt>
      <trkpt lat="45.62334" lon="3.12443">
        <ele>644.9139</ele>
        <time>2012-07-18T08:07:19Z</time>
      </trkpt>
      <trkpt lat="45.62315" lon="3.12438">
        <ele>644.2262</ele>
        <time>2012-07-18T08:07:22Z</time>
      </trkpt>
      <trkpt lat="45.62293" lon="3.12427">
        <ele>643.03876</ele>
        <time>2012-07-18T08:07:26Z</time>
      </trkpt>
      <trkpt lat="45.62274" lon="3.12414">
        <ele>642.1536</ele>
        <time>2012-07-18T08:07:30Z</time>
      </trkpt>
      <trkpt lat="45.6226" lon="3.12398">
        <ele>641.55914</ele>
        <time>2012-07-18T08:07:34Z</time>
      </trkpt>
      <trkpt lat="45.62246" lon="3.12375">
        <ele>642.5709</ele>
        <time>2012-07-18T08:07:40Z</time>
      </trkpt>
      <trkpt lat="45.62235" lon="3.12351">
        <ele>643.4674</ele>
        <time>2012-07-18T08:07:45Z</time>
      </trkpt>
      <trkpt lat="45.62219" lon="3.12335">
        <ele>644.61475</ele>
        <time>2012-07-18T08:07:50Z</time>
      </trkpt>
      <trkpt lat="45.62195" lon="3.12319">
        <ele>644.89014</ele>
        <time>2012-07-18T08:07:56Z</time>
      </trkpt>
      <trkpt lat="45.62183" lon="3.12298">
        <ele>643.23456</ele>
        <time>2012-07-18T08:08:01Z</time>
      </trkpt>
      <trkpt lat="45.62177" lon="3.1227">
        <ele>641.9596</ele>
        <time>2012-07-18T08:08:07Z</time>
      </trkpt>
      <trkpt lat="45.62164" lon="3.12251">
        <ele>644.5147</ele>
        <time>2012-07-18T08:08:13Z</time>
      </trkpt>
      <trkpt lat="45.62143" lon="3.12245">
        <ele>645.1623</ele>
        <time>2012-07-18T08:08:18Z</time>
      </trkpt>
      <trkpt lat="45.62124" lon="3.12239">
        <ele>643.4259</ele>
        <time>2012-07-18T08:08:25Z</time>
      </trkpt>
      <trkpt lat="45.62108" lon="3.12229">
        <ele>645.1527</ele>
        <time>2012-07-18T08:08:34Z</time>
      </trkpt>
      <trkpt lat="45.62091" lon="3.1222">
        <ele>646.3318</ele>
        <time>2012-07-18T08:08:43Z</time>
      </trkpt>
      <trkpt lat="45.62073" lon="3.12213">
        <ele>647.4672</ele>
        <time>2012-07-18T08:08:53Z</time>
      </trkpt>
      <trkpt lat="45.62053" lon="3.12212">
        <ele>648.57983</ele>
        <time>2012-07-18T08:09:03Z</time>
      </trkpt>
      <trkpt lat="45.62034" lon="3.12212">
        <ele>649.06024</ele>
        <time>2012-07-18T08:09:12Z</time>
      </trkpt>
      <trkpt lat="45.62015" lon="3.12213">
        <ele>649.73553</ele>
        <time>2012-07-18T08:09:20Z</time>
      </trkpt>
      <trkpt lat="45.61996" lon="3.12214">
        <ele>649.9445</ele>
        <time>2012-07-18T08:09:28Z</time>
      </trkpt>
      <trkpt lat="45.61978" lon="3.12208">
        <ele>651.626</ele>
        <time>2012-07-18T08:09:37Z</time>
      </trkpt>
      <trkpt lat="45.6196" lon="3.12203">
        <ele>653.0903</ele>
        <time>2012-07-18T08:09:44Z</time>
      </trkpt>
      <trkpt lat="45.61942" lon="3.12196">
        <ele>653.679</ele>
        <time>2012-07-18T08:09:52Z</time>
      </trkpt>
      <trkpt lat="45.61923" lon="3.12188">
        <ele>654.8481</ele>
        <time>2012-07-18T08:10:01Z</time>
      </trkpt>
      <trkpt lat="45.61906" lon="3.12179">
        <ele>655.934</ele>
        <time>2012-07-18T08:10:10Z</time>
      </trkpt>
      <trkpt lat="45.61887" lon="3.12172">
        <ele>656.67377</ele>
        <time>2012-07-18T08:10:19Z</time>
      </trkpt>
      <trkpt lat="45.61868" lon="3.12165">
        <ele>657.2451</ele>
        <time>2012-07-18T08:10:29Z</time>
      </trkpt>
      <trkpt lat="45.6185" lon="3.12159">
        <ele>659.1945</ele>
        <time>2012-07-18T08:10:38Z</time>
      </trkpt>
      <trkpt lat="45.61832" lon="3.12151">
        <ele>660.1646</ele>
        <time>2012-07-18T08:10:48Z</time>
      </trkpt>
      <trkpt lat="45.61813" lon="3.12144">
        <ele>660.3953</ele>
        <time>2012-07-18T08:10:58Z</time>
      </trkpt>
      <trkpt lat="45.61794" lon="3.12132">
        <ele>660.5598</ele>
        <time>2012-07-18T08:11:06Z</time>
      </trkpt>
      <trkpt lat="45.61779" lon="3.12119">
        <ele>662.7278</ele>
        <time>2012-07-18T08:11:16Z</time>
      </trkpt>
      <trkpt lat="45.61763" lon="3.12103">
        <ele>665.3263</ele>
        <time>2012-07-18T08:11:27Z</time>
      </trkpt>
      <trkpt lat="45.61748" lon="3.12087">
        <ele>667.36127</ele>
        <time>2012-07-18T08:11:39Z</time>
      </trkpt>
      <trkpt lat="45.61734" lon="3.1207">
        <ele>668.74854</ele>
        <time>2012-07-18T08:11:50Z</time>
      </trkpt>
      <trkpt lat="45.61719" lon="3.12054">
        <ele>670.2628</ele>
        <time>2012-07-18T08:11:59Z</time>
      </trkpt>
      <trkpt lat="45.61706" lon="3.12032">
        <ele>672.0375</ele>
        <time>2012-07-18T08:12:08Z</time>
      </trkpt>
      <trkpt lat="45.61696" lon="3.12011">
        <ele>672.7571</ele>
        <time>2012-07-18T08:12:15Z</time>
      </trkpt>
      <trkpt lat="45.61685" lon="3.11991">
        <ele>673.8312</ele>
        <time>2012-07-18T08:12:23Z</time>
      </trkpt>
      <trkpt lat="45.61674" lon="3.1197">
        <ele>674.87396</ele>
        <time>2012-07-18T08:12:33Z</time>
      </trkpt>
      <trkpt lat="45.6166" lon="3.11953">
        <ele>675.4567</ele>
        <time>2012-07-18T08:13:33Z</time>
      </trkpt>
      <trkpt lat="45.61644" lon="3.11937">
        <ele>673.67456</ele>
        <time>2012-07-18T08:13:40Z</time>
      </trkpt>
      <trkpt lat="45.61627" lon="3.11921">
        <ele>673.5096</ele>
        <time>2012-07-18T08:13:49Z</time>
      </trkpt>
      <trkpt lat="45.61612" lon="3.11903">
        <ele>672.54596</ele>
        <time>2012-07-18T08:13:54Z</time>
      </trkpt>
      <trkpt lat="45.61597" lon="3.11882">
        <ele>671.668</ele>
        <time>2012-07-18T08:13:58Z</time>
      </trkpt>
      <trkpt lat="45.61583" lon="3.11866">
        <ele>671.0506</ele>
        <time>2012-07-18T08:14:01Z</time>
      </trkpt>
      <trkpt lat="45.61564" lon="3.1185">
        <ele>669.4573</ele>
        <time>2012-07-18T08:14:04Z</time>
      </trkpt>
      <trkpt lat="45.61543" lon="3.11831">
        <ele>667.62415</ele>
        <time>2012-07-18T08:14:07Z</time>
      </trkpt>
      <trkpt lat="45.61521" lon="3.11813">
        <ele>665.7508</ele>
        <time>2012-07-18T08:14:10Z</time>
      </trkpt>
      <trkpt lat="45.61499" lon="3.11793">
        <ele>663.8199</ele>
        <time>2012-07-18T08:14:13Z</time>
      </trkpt>
      <trkpt lat="45.61476" lon="3.11774">
        <ele>662.2287</ele>
        <time>2012-07-18T08:14:16Z</time>
      </trkpt>
      <trkpt lat="45.61451" lon="3.11758">
        <ele>660.56055</ele>
        <time>2012-07-18T08:14:19Z</time>
      </trkpt>
      <trkpt lat="45.61433" lon="3.11748">
        <ele>659.2778</ele>
        <time>2012-07-18T08:14:21Z</time>
      </trkpt>
      <trkpt lat="45.61416" lon="3.11737">
        <ele>657.89374</ele>
        <time>2012-07-18T08:14:23Z</time>
      </trkpt>
      <trkpt lat="45.61394" lon="3.11721">
        <ele>655.9161</ele>
        <time>2012-07-18T08:14:26Z</time>
      </trkpt>
      <trkpt lat="45.61376" lon="3.11705">
        <ele>653.1357</ele>
        <time>2012-07-18T08:14:31Z</time>
      </trkpt>
      <trkpt lat="45.61366" lon="3.11684">
        <ele>650.747</ele>
        <time>2012-07-18T08:14:39Z</time>
      </trkpt>
      <trkpt lat="45.61348" lon="3.11692">
        <ele>649.71735</ele>
        <time>2012-07-18T08:14:45Z</time>
      </trkpt>
      <trkpt lat="45.61334" lon="3.11709">
        <ele>649.959</ele>
        <time>2012-07-18T08:14:50Z</time>
      </trkpt>
      <trkpt lat="45.61319" lon="3.11731">
        <ele>650.33704</ele>
        <time>2012-07-18T08:14:55Z</time>
      </trkpt>
      <trkpt lat="45.61304" lon="3.11752">
        <ele>650.6974</ele>
        <time>2012-07-18T08:15:00Z</time>
      </trkpt>
      <trkpt lat="45.61289" lon="3.11772">
        <ele>651.26874</ele>
        <time>2012-07-18T08:15:05Z</time>
      </trkpt>
      <trkpt lat="45.61273" lon="3.11793">
        <ele>651.47705</ele>
        <time>2012-07-18T08:15:10Z</time>
      </trkpt>
      <trkpt lat="45.61259" lon="3.11811">
        <ele>651.7301</ele>
        <time>2012-07-18T08:15:15Z</time>
      </trkpt>
      <trkpt lat="45.61246" lon="3.11831">
        <ele>651.01086</ele>
        <time>2012-07-18T08:15:20Z</time>
      </trkpt>
      <trkpt lat="45.61232" lon="3.11851">
        <ele>651.1932</ele>
        <time>2012-07-18T08:15:25Z</time>
      </trkpt>
      <trkpt lat="45.61219" lon="3.11872">
        <ele>652.2776</ele>
        <time>2012-07-18T08:15:30Z</time>
      </trkpt>
      <trkpt lat="45.61207" lon="3.11893">
        <ele>653.5538</ele>
        <time>2012-07-18T08:15:35Z</time>
      </trkpt>
      <trkpt lat="45.61194" lon="3.11915">
        <ele>653.9406</ele>
        <time>2012-07-18T08:15:40Z</time>
      </trkpt>
      <trkpt lat="45.6118" lon="3.11938">
        <ele>653.47565</ele>
        <time>2012-07-18T08:15:45Z</time>
      </trkpt>
      <trkpt lat="45.61168" lon="3.1196">
        <ele>652.6271</ele>
        <time>2012-07-18T08:15:49Z</time>
      </trkpt>
      <trkpt lat="45.61153" lon="3.11983">
        <ele>652.209</ele>
        <time>2012-07-18T08:15:53Z</time>
      </trkpt>
      <trkpt lat="45.61143" lon="3.12006">
        <ele>652.2294</ele>
        <time>2012-07-18T08:15:57Z</time>
      </trkpt>
      <trkpt lat="45.61135" lon="3.1203">
        <ele>652.1308</ele>
        <time>2012-07-18T08:16:01Z</time>
      </trkpt>
      <trkpt lat="45.61125" lon="3.12056">
        <ele>651.7119</ele>
        <time>2012-07-18T08:16:06Z</time>
      </trkpt>
      <trkpt lat="45.61113" lon="3.12082">
        <ele>651.7683</ele>
        <time>2012-07-18T08:16:11Z</time>
      </trkpt>
      <trkpt lat="45.61102" lon="3.12103">
        <ele>652.46027</ele>
        <time>2012-07-18T08:16:16Z</time>
      </trkpt>
      <trkpt lat="45.61091" lon="3.12126">
        <ele>653.1302</ele>
        <time>2012-07-18T08:16:21Z</time>
      </trkpt>
      <trkpt lat="45.61083" lon="3.12149">
        <ele>653.545</ele>
        <time>2012-07-18T08:16:26Z</time>
      </trkpt>
      <trkpt lat="45.61075" lon="3.12172">
        <ele>653.65247</ele>
        <time>2012-07-18T08:16:31Z</time>
      </trkpt>
      <trkpt lat="45.61066" lon="3.12201">
        <ele>653.7253</ele>
        <time>2012-07-18T08:16:37Z</time>
      </trkpt>
      <trkpt lat="45.61057" lon="3.12228">
        <ele>653.253</ele>
        <time>2012-07-18T08:16:42Z</time>
      </trkpt>
      <trkpt lat="45.61048" lon="3.12256">
        <ele>652.84564</ele>
        <time>2012-07-18T08:16:47Z</time>
      </trkpt>
      <trkpt lat="45.61041" lon="3.12286">
        <ele>652.1372</ele>
        <time>2012-07-18T08:16:52Z</time>
      </trkpt>
      <trkpt lat="45.61033" lon="3.12312">
        <ele>651.2512</ele>
        <time>2012-07-18T08:16:56Z</time>
      </trkpt>
      <trkpt lat="45.6102" lon="3.12337">
        <ele>650.1115</ele>
        <time>2012-07-18T08:17:00Z</time>
      </trkpt>
      <trkpt lat="45.61007" lon="3.12355">
        <ele>649.558</ele>
        <time>2012-07-18T08:17:03Z</time>
      </trkpt>
      <trkpt lat="45.60992" lon="3.12371">
        <ele>648.6776</ele>
        <time>2012-07-18T08:17:06Z</time>
      </trkpt>
      <trkpt lat="45.60978" lon="3.12388">
        <ele>648.1546</ele>
        <time>2012-07-18T08:17:09Z</time>
      </trkpt>
      <trkpt lat="45.60959" lon="3.12402">
        <ele>648.1286</ele>
        <time>2012-07-18T08:17:13Z</time>
      </trkpt>
      <trkpt lat="45.6094" lon="3.12415">
        <ele>648.0173</ele>
        <time>2012-07-18T08:17:17Z</time>
      </trkpt>
      <trkpt lat="45.60922" lon="3.12424">
        <ele>647.3117</ele>
        <time>2012-07-18T08:17:21Z</time>
      </trkpt>
      <trkpt lat="45.60905" lon="3.12431">
        <ele>647.30524</ele>
        <time>2012-07-18T08:17:25Z</time>
      </trkpt>
      <trkpt lat="45.60887" lon="3.12438">
        <ele>646.86884</ele>
        <time>2012-07-18T08:17:29Z</time>
      </trkpt>
      <trkpt lat="45.60869" lon="3.12444">
        <ele>646.33075</ele>
        <time>2012-07-18T08:17:33Z</time>
      </trkpt>
      <trkpt lat="45.60848" lon="3.12452">
        <ele>645.71674</ele>
        <time>2012-07-18T08:17:37Z</time>
      </trkpt>
      <trkpt lat="45.6083" lon="3.12459">
        <ele>646.0776</ele>
        <time>2012-07-18T08:17:41Z</time>
      </trkpt>
      <trkpt lat="45.60809" lon="3.1247">
        <ele>647.0131</ele>
        <time>2012-07-18T08:17:46Z</time>
      </trkpt>
      <trkpt lat="45.60794" lon="3.1249">
        <ele>648.5969</ele>
        <time>2012-07-18T08:17:53Z</time>
      </trkpt>
      <trkpt lat="45.6078" lon="3.12508">
        <ele>645.50085</ele>
        <time>2012-07-18T08:17:58Z</time>
      </trkpt>
      <trkpt lat="45.60766" lon="3.12533">
        <ele>646.5822</ele>
        <time>2012-07-18T08:18:03Z</time>
      </trkpt>
      <trkpt lat="45.60753" lon="3.12559">
        <ele>647.1563</ele>
        <time>2012-07-18T08:18:08Z</time>
      </trkpt>
      <trkpt lat="45.60739" lon="3.12578">
        <ele>646.9335</ele>
        <time>2012-07-18T08:18:13Z</time>
      </trkpt>
      <trkpt lat="45.60736" lon="3.12605">
        <ele>649.6629</ele>
        <time>2012-07-18T08:18:19Z</time>
      </trkpt>
      <trkpt lat="45.6075" lon="3.12626">
        <ele>655.9703</ele>
        <time>2012-07-18T08:18:23Z</time>
      </trkpt>
      <trkpt lat="45.60737" lon="3.1265">
        <ele>657.9785</ele>
        <time>2012-07-18T08:18:28Z</time>
      </trkpt>
      <trkpt lat="45.60731" lon="3.12678">
        <ele>661.0445</ele>
        <time>2012-07-18T08:18:34Z</time>
      </trkpt>
      <trkpt lat="45.60726" lon="3.12708">
        <ele>663.5266</ele>
        <time>2012-07-18T08:18:40Z</time>
      </trkpt>
      <trkpt lat="45.6072" lon="3.12734">
        <ele>664.66907</ele>
        <time>2012-07-18T08:18:46Z</time>
      </trkpt>
      <trkpt lat="45.60711" lon="3.1276">
        <ele>666.35236</ele>
        <time>2012-07-18T08:18:53Z</time>
      </trkpt>
      <trkpt lat="45.60702" lon="3.12785">
        <ele>666.68744</ele>
        <time>2012-07-18T08:18:59Z</time>
      </trkpt>
      <trkpt lat="45.60693" lon="3.12808">
        <ele>665.3881</ele>
        <time>2012-07-18T08:19:04Z</time>
      </trkpt>
      <trkpt lat="45.60684" lon="3.12833">
        <ele>664.04095</ele>
        <time>2012-07-18T08:19:09Z</time>
      </trkpt>
      <trkpt lat="45.60676" lon="3.1286">
        <ele>662.51215</ele>
        <time>2012-07-18T08:19:14Z</time>
      </trkpt>
      <trkpt lat="45.60666" lon="3.12885">
        <ele>660.1886</ele>
        <time>2012-07-18T08:19:18Z</time>
      </trkpt>
      <trkpt lat="45.60657" lon="3.12914">
        <ele>658.31256</ele>
        <time>2012-07-18T08:19:23Z</time>
      </trkpt>
      <trkpt lat="45.60648" lon="3.12942">
        <ele>658.1398</ele>
        <time>2012-07-18T08:19:28Z</time>
      </trkpt>
      <trkpt lat="45.60635" lon="3.12962">
        <ele>657.46027</ele>
        <time>2012-07-18T08:19:33Z</time>
      </trkpt>
      <trkpt lat="45.60622" lon="3.12986">
        <ele>656.26685</ele>
        <time>2012-07-18T08:19:39Z</time>
      </trkpt>
      <trkpt lat="45.60608" lon="3.13009">
        <ele>656.05414</ele>
        <time>2012-07-18T08:19:45Z</time>
      </trkpt>
      <trkpt lat="45.60598" lon="3.13033">
        <ele>656.5594</ele>
        <time>2012-07-18T08:19:51Z</time>
      </trkpt>
      <trkpt lat="45.60592" lon="3.13058">
        <ele>657.2547</ele>
        <time>2012-07-18T08:19:57Z</time>
      </trkpt>
      <trkpt lat="45.60589" lon="3.13087">
        <ele>657.93304</ele>
        <time>2012-07-18T08:20:04Z</time>
      </trkpt>
      <trkpt lat="45.60586" lon="3.13113">
        <ele>659.1663</ele>
        <time>2012-07-18T08:20:10Z</time>
      </trkpt>
      <trkpt lat="45.60585" lon="3.13139">
        <ele>658.2546</ele>
        <time>2012-07-18T08:20:16Z</time>
      </trkpt>
      <trkpt lat="45.60583" lon="3.13165">
        <ele>658.0017</ele>
        <time>2012-07-18T08:20:22Z</time>
      </trkpt>
      <trkpt lat="45.60582" lon="3.13192">
        <ele>658.3975</ele>
        <time>2012-07-18T08:20:28Z</time>
      </trkpt>
      <trkpt lat="45.6058" lon="3.13221">
        <ele>659.2475</ele>
        <time>2012-07-18T08:20:35Z</time>
      </trkpt>
      <trkpt lat="45.60577" lon="3.13248">
        <ele>659.2804</ele>
        <time>2012-07-18T08:20:42Z</time>
      </trkpt>
      <trkpt lat="45.60574" lon="3.13276">
        <ele>659.7818</ele>
        <time>2012-07-18T08:20:49Z</time>
      </trkpt>
      <trkpt lat="45.60571" lon="3.13303">
        <ele>660.86224</ele>
        <time>2012-07-18T08:20:56Z</time>
      </trkpt>
      <trkpt lat="45.60565" lon="3.13331">
        <ele>662.14325</ele>
        <time>2012-07-18T08:21:03Z</time>
      </trkpt>
      <trkpt lat="45.6056" lon="3.13358">
        <ele>662.48553</ele>
        <time>2012-07-18T08:21:11Z</time>
      </trkpt>
      <trkpt lat="45.60552" lon="3.13382">
        <ele>663.6644</ele>
        <time>2012-07-18T08:21:19Z</time>
      </trkpt>
      <trkpt lat="45.60544" lon="3.13406">
        <ele>663.60785</ele>
        <time>2012-07-18T08:21:26Z</time>
      </trkpt>
      <trkpt lat="45.60533" lon="3.1343">
        <ele>664.1547</ele>
        <time>2012-07-18T08:21:33Z</time>
      </trkpt>
      <trkpt lat="45.60523" lon="3.13452">
        <ele>664.7743</ele>
        <time>2012-07-18T08:21:39Z</time>
      </trkpt>
      <trkpt lat="45.6051" lon="3.13473">
        <ele>664.88385</ele>
        <time>2012-07-18T08:21:45Z</time>
      </trkpt>
      <trkpt lat="45.60494" lon="3.13493">
        <ele>663.42145</ele>
        <time>2012-07-18T08:21:51Z</time>
      </trkpt>
      <trkpt lat="45.60481" lon="3.13511">
        <ele>662.9199</ele>
        <time>2012-07-18T08:21:56Z</time>
      </trkpt>
      <trkpt lat="45.60467" lon="3.13529">
        <ele>662.4853</ele>
        <time>2012-07-18T08:22:01Z</time>
      </trkpt>
      <trkpt lat="45.60453" lon="3.1355">
        <ele>661.9599</ele>
        <time>2012-07-18T08:22:06Z</time>
      </trkpt>
      <trkpt lat="45.6044" lon="3.13571">
        <ele>661.8358</ele>
        <time>2012-07-18T08:22:11Z</time>
      </trkpt>
      <trkpt lat="45.60425" lon="3.13591">
        <ele>660.3784</ele>
        <time>2012-07-18T08:22:16Z</time>
      </trkpt>
      <trkpt lat="45.6041" lon="3.13609">
        <ele>658.8022</ele>
        <time>2012-07-18T08:22:20Z</time>
      </trkpt>
      <trkpt lat="45.60392" lon="3.1363">
        <ele>657.1417</ele>
        <time>2012-07-18T08:22:24Z</time>
      </trkpt>
      <trkpt lat="45.60378" lon="3.13647">
        <ele>655.88477</ele>
        <time>2012-07-18T08:22:27Z</time>
      </trkpt>
      <trkpt lat="45.60363" lon="3.13666">
        <ele>655.067</ele>
        <time>2012-07-18T08:22:30Z</time>
      </trkpt>
      <trkpt lat="45.60347" lon="3.13685">
        <ele>654.5033</ele>
        <time>2012-07-18T08:22:33Z</time>
      </trkpt>
      <trkpt lat="45.6033" lon="3.13702">
        <ele>653.6232</ele>
        <time>2012-07-18T08:22:36Z</time>
      </trkpt>
      <trkpt lat="45.60313" lon="3.13717">
        <ele>652.1973</ele>
        <time>2012-07-18T08:22:39Z</time>
      </trkpt>
      <trkpt lat="45.60295" lon="3.13729">
        <ele>651.31915</ele>
        <time>2012-07-18T08:22:42Z</time>
      </trkpt>
      <trkpt lat="45.60276" lon="3.13738">
        <ele>650.3753</ele>
        <time>2012-07-18T08:22:45Z</time>
      </trkpt>
      <trkpt lat="45.60259" lon="3.1375">
        <ele>649.1505</ele>
        <time>2012-07-18T08:22:48Z</time>
      </trkpt>
      <trkpt lat="45.60242" lon="3.13765">
        <ele>646.99005</ele>
        <time>2012-07-18T08:22:51Z</time>
      </trkpt>
      <trkpt lat="45.60222" lon="3.13776">
        <ele>645.0599</ele>
        <time>2012-07-18T08:22:54Z</time>
      </trkpt>
      <trkpt lat="45.60202" lon="3.13788">
        <ele>642.95496</ele>
        <time>2012-07-18T08:22:57Z</time>
      </trkpt>
      <trkpt lat="45.60184" lon="3.13802">
        <ele>641.0138</ele>
        <time>2012-07-18T08:23:00Z</time>
      </trkpt>
      <trkpt lat="45.60169" lon="3.13819">
        <ele>639.6293</ele>
        <time>2012-07-18T08:23:03Z</time>
      </trkpt>
      <trkpt lat="45.60154" lon="3.13838">
        <ele>638.8889</ele>
        <time>2012-07-18T08:23:06Z</time>
      </trkpt>
      <trkpt lat="45.60142" lon="3.1386">
        <ele>637.85156</ele>
        <time>2012-07-18T08:23:09Z</time>
      </trkpt>
      <trkpt lat="45.60159" lon="3.1387">
        <ele>635.3756</ele>
        <time>2012-07-18T08:23:24Z</time>
      </trkpt>
      <trkpt lat="45.60179" lon="3.13877">
        <ele>635.3677</ele>
        <time>2012-07-18T08:23:30Z</time>
      </trkpt>
      <trkpt lat="45.60197" lon="3.13882">
        <ele>635.2498</ele>
        <time>2012-07-18T08:23:35Z</time>
      </trkpt>
      <trkpt lat="45.60214" lon="3.13896">
        <ele>635.1859</ele>
        <time>2012-07-18T08:23:41Z</time>
      </trkpt>
      <trkpt lat="45.60228" lon="3.13918">
        <ele>634.91724</ele>
        <time>2012-07-18T08:23:46Z</time>
      </trkpt>
      <trkpt lat="45.60242" lon="3.1394">
        <ele>633.5563</ele>
        <time>2012-07-18T08:23:50Z</time>
      </trkpt>
      <trkpt lat="45.60256" lon="3.13966">
        <ele>631.8655</ele>
        <time>2012-07-18T08:23:54Z</time>
      </trkpt>
      <trkpt lat="45.6027" lon="3.13989">
        <ele>630.4745</ele>
        <time>2012-07-18T08:23:57Z</time>
      </trkpt>
      <trkpt lat="45.60285" lon="3.14008">
        <ele>628.89703</ele>
        <time>2012-07-18T08:24:00Z</time>
      </trkpt>
      <trkpt lat="45.60305" lon="3.1401">
        <ele>627.9807</ele>
        <time>2012-07-18T08:24:04Z</time>
      </trkpt>
      <trkpt lat="45.60327" lon="3.14012">
        <ele>628.69434</ele>
        <time>2012-07-18T08:24:10Z</time>
      </trkpt>
      <trkpt lat="45.60348" lon="3.14017">
        <ele>628.2595</ele>
        <time>2012-07-18T08:24:15Z</time>
      </trkpt>
      <trkpt lat="45.60369" lon="3.1402">
        <ele>627.3762</ele>
        <time>2012-07-18T08:24:19Z</time>
      </trkpt>
      <trkpt lat="45.60393" lon="3.14023">
        <ele>626.25305</ele>
        <time>2012-07-18T08:24:23Z</time>
      </trkpt>
      <trkpt lat="45.60415" lon="3.14022">
        <ele>625.88947</ele>
        <time>2012-07-18T08:24:27Z</time>
      </trkpt>
      <trkpt lat="45.60436" lon="3.14019">
        <ele>625.60956</ele>
        <time>2012-07-18T08:24:31Z</time>
      </trkpt>
      <trkpt lat="45.60458" lon="3.14015">
        <ele>624.7284</ele>
        <time>2012-07-18T08:24:35Z</time>
      </trkpt>
      <trkpt lat="45.60478" lon="3.14011">
        <ele>622.4836</ele>
        <time>2012-07-18T08:24:39Z</time>
      </trkpt>
      <trkpt lat="45.60498" lon="3.14006">
        <ele>619.1214</ele>
        <time>2012-07-18T08:24:46Z</time>
      </trkpt>
      <trkpt lat="45.60516" lon="3.14003">
        <ele>617.9546</ele>
        <time>2012-07-18T08:24:51Z</time>
      </trkpt>
      <trkpt lat="45.60537" lon="3.14">
        <ele>615.02264</ele>
        <time>2012-07-18T08:24:58Z</time>
      </trkpt>
      <trkpt lat="45.60557" lon="3.13999">
        <ele>612.9005</ele>
        <time>2012-07-18T08:25:02Z</time>
      </trkpt>
      <trkpt lat="45.60577" lon="3.14005">
        <ele>608.88184</ele>
        <time>2012-07-18T08:25:08Z</time>
      </trkpt>
      <trkpt lat="45.60595" lon="3.14013">
        <ele>606.8093</ele>
        <time>2012-07-18T08:25:14Z</time>
      </trkpt>
      <trkpt lat="45.60603" lon="3.14039">
        <ele>604.68823</ele>
        <time>2012-07-18T08:26:01Z</time>
      </trkpt>
      <trkpt lat="45.6059" lon="3.14058">
        <ele>597.0682</ele>
        <time>2012-07-18T08:26:20Z</time>
      </trkpt>
      <trkpt lat="45.60585" lon="3.14086">
        <ele>597.833</ele>
        <time>2012-07-18T08:26:25Z</time>
      </trkpt>
      <trkpt lat="45.60584" lon="3.14117">
        <ele>597.8802</ele>
        <time>2012-07-18T08:26:30Z</time>
      </trkpt>
      <trkpt lat="45.60595" lon="3.14145">
        <ele>597.4898</ele>
        <time>2012-07-18T08:26:34Z</time>
      </trkpt>
      <trkpt lat="45.60604" lon="3.14175">
        <ele>596.79407</ele>
        <time>2012-07-18T08:26:38Z</time>
      </trkpt>
      <trkpt lat="45.6061" lon="3.14202">
        <ele>595.8725</ele>
        <time>2012-07-18T08:26:41Z</time>
      </trkpt>
      <trkpt lat="45.60621" lon="3.14224">
        <ele>594.054</ele>
        <time>2012-07-18T08:26:44Z</time>
      </trkpt>
      <trkpt lat="45.60631" lon="3.14251">
        <ele>592.7509</ele>
        <time>2012-07-18T08:26:47Z</time>
      </trkpt>
      <trkpt lat="45.6064" lon="3.14274">
        <ele>591.5309</ele>
        <time>2012-07-18T08:26:50Z</time>
      </trkpt>
      <trkpt lat="45.60649" lon="3.14299">
        <ele>590.1111</ele>
        <time>2012-07-18T08:26:52Z</time>
      </trkpt>
      <trkpt lat="45.60662" lon="3.14322">
        <ele>587.2562</ele>
        <time>2012-07-18T08:26:54Z</time>
      </trkpt>
      <trkpt lat="45.60678" lon="3.14346">
        <ele>580.7831</ele>
        <time>2012-07-18T08:26:57Z</time>
      </trkpt>
      <trkpt lat="45.6069" lon="3.14366">
        <ele>576.871</ele>
        <time>2012-07-18T08:27:00Z</time>
      </trkpt>
      <trkpt lat="45.60705" lon="3.14386">
        <ele>573.3706</ele>
        <time>2012-07-18T08:27:03Z</time>
      </trkpt>
      <trkpt lat="45.60723" lon="3.14406">
        <ele>567.7325</ele>
        <time>2012-07-18T08:27:07Z</time>
      </trkpt>
      <trkpt lat="45.60731" lon="3.14433">
        <ele>563.8535</ele>
        <time>2012-07-18T08:27:12Z</time>
      </trkpt>
      <trkpt lat="45.60743" lon="3.14452">
        <ele>561.2986</ele>
        <time>2012-07-18T08:27:16Z</time>
      </trkpt>
      <trkpt lat="45.60757" lon="3.14479">
        <ele>558.9933</ele>
        <time>2012-07-18T08:27:20Z</time>
      </trkpt>
      <trkpt lat="45.60771" lon="3.14506">
        <ele>555.98773</ele>
        <time>2012-07-18T08:27:24Z</time>
      </trkpt>
      <trkpt lat="45.60783" lon="3.14527">
        <ele>553.27075</ele>
        <time>2012-07-18T08:27:28Z</time>
      </trkpt>
      <trkpt lat="45.60799" lon="3.14546">
        <ele>551.949</ele>
        <time>2012-07-18T08:27:35Z</time>
      </trkpt>
      <trkpt lat="45.60816" lon="3.14569">
        <ele>553.155</ele>
        <time>2012-07-18T08:27:38Z</time>
      </trkpt>
      <trkpt lat="45.60832" lon="3.14586">
        <ele>553.5065</ele>
        <time>2012-07-18T08:27:42Z</time>
      </trkpt>
      <trkpt lat="45.60849" lon="3.14598">
        <ele>552.0849</ele>
        <time>2012-07-18T08:27:44Z</time>
      </trkpt>
      <trkpt lat="45.60866" lon="3.14619">
        <ele>549.73193</ele>
        <time>2012-07-18T08:27:48Z</time>
      </trkpt>
      <trkpt lat="45.60883" lon="3.14637">
        <ele>548.26794</ele>
        <time>2012-07-18T08:27:52Z</time>
      </trkpt>
      <trkpt lat="45.60897" lon="3.14663">
        <ele>546.08636</ele>
        <time>2012-07-18T08:27:56Z</time>
      </trkpt>
      <trkpt lat="45.60916" lon="3.14673">
        <ele>544.8048</ele>
        <time>2012-07-18T08:27:58Z</time>
      </trkpt>
      <trkpt lat="45.60936" lon="3.14687">
        <ele>542.54486</ele>
        <time>2012-07-18T08:28:02Z</time>
      </trkpt>
      <trkpt lat="45.60947" lon="3.14714">
        <ele>540.84076</ele>
        <time>2012-07-18T08:28:06Z</time>
      </trkpt>
      <trkpt lat="45.60965" lon="3.14721">
        <ele>539.10626</ele>
        <time>2012-07-18T08:28:09Z</time>
      </trkpt>
      <trkpt lat="45.6098" lon="3.14735">
        <ele>537.7448</ele>
        <time>2012-07-18T08:28:12Z</time>
      </trkpt>
      <trkpt lat="45.60996" lon="3.14752">
        <ele>536.7314</ele>
        <time>2012-07-18T08:28:15Z</time>
      </trkpt>
      <trkpt lat="45.6101" lon="3.14773">
        <ele>535.28064</ele>
        <time>2012-07-18T08:28:19Z</time>
      </trkpt>
      <trkpt lat="45.61023" lon="3.14794">
        <ele>533.61523</ele>
        <time>2012-07-18T08:28:22Z</time>
      </trkpt>
      <trkpt lat="45.61034" lon="3.1482">
        <ele>532.19</ele>
        <time>2012-07-18T08:28:26Z</time>
      </trkpt>
      <trkpt lat="45.61048" lon="3.14837">
        <ele>530.71606</ele>
        <time>2012-07-18T08:28:29Z</time>
      </trkpt>
      <trkpt lat="45.61061" lon="3.14857">
        <ele>528.1629</ele>
        <time>2012-07-18T08:28:33Z</time>
      </trkpt>
      <trkpt lat="45.61075" lon="3.14882">
        <ele>525.17236</ele>
        <time>2012-07-18T08:28:38Z</time>
      </trkpt>
      <trkpt lat="45.61091" lon="3.14899">
        <ele>522.078</ele>
        <time>2012-07-18T08:28:43Z</time>
      </trkpt>
      <trkpt lat="45.61093" lon="3.14925">
        <ele>513.4324</ele>
        <time>2012-07-18T08:31:04Z</time>
      </trkpt>
      <trkpt lat="45.61075" lon="3.14916">
        <ele>508.48843</ele>
        <time>2012-07-18T08:31:17Z</time>
      </trkpt>
      <trkpt lat="45.61057" lon="3.14908">
        <ele>510.2072</ele>
        <time>2012-07-18T08:31:27Z</time>
      </trkpt>
      <trkpt lat="45.61039" lon="3.14898">
        <ele>512.241</ele>
        <time>2012-07-18T08:31:36Z</time>
      </trkpt>
      <trkpt lat="45.61021" lon="3.14887">
        <ele>513.274</ele>
        <time>2012-07-18T08:31:47Z</time>
      </trkpt>
      <trkpt lat="45.61004" lon="3.14878">
        <ele>514.3469</ele>
        <time>2012-07-18T08:31:57Z</time>
      </trkpt>
      <trkpt lat="45.60985" lon="3.14872">
        <ele>515.1009</ele>
        <time>2012-07-18T08:32:07Z</time>
      </trkpt>
      <trkpt lat="45.60966" lon="3.14871">
        <ele>517.60516</ele>
        <time>2012-07-18T08:32:19Z</time>
      </trkpt>
      <trkpt lat="45.60946" lon="3.14867">
        <ele>518.48706</ele>
        <time>2012-07-18T08:32:34Z</time>
      </trkpt>
      <trkpt lat="45.60928" lon="3.1487">
        <ele>519.6047</ele>
        <time>2012-07-18T08:32:46Z</time>
      </trkpt>
      <trkpt lat="45.60908" lon="3.14872">
        <ele>521.4915</ele>
        <time>2012-07-18T08:32:59Z</time>
      </trkpt>
      <trkpt lat="45.60889" lon="3.14875">
        <ele>522.86804</ele>
        <time>2012-07-18T08:33:12Z</time>
      </trkpt>
      <trkpt lat="45.60869" lon="3.14876">
        <ele>522.7648</ele>
        <time>2012-07-18T08:33:26Z</time>
      </trkpt>
      <trkpt lat="45.60851" lon="3.14872">
        <ele>524.3835</ele>
        <time>2012-07-18T08:33:37Z</time>
      </trkpt>
      <trkpt lat="45.60832" lon="3.14867">
        <ele>526.613</ele>
        <time>2012-07-18T08:33:49Z</time>
      </trkpt>
      <trkpt lat="45.60814" lon="3.14858">
        <ele>528.676</ele>
        <time>2012-07-18T08:34:03Z</time>
      </trkpt>
      <trkpt lat="45.60797" lon="3.14849">
        <ele>530.8143</ele>
        <time>2012-07-18T08:34:17Z</time>
      </trkpt>
      <trkpt lat="45.60778" lon="3.1484">
        <ele>534.52405</ele>
        <time>2012-07-18T08:34:32Z</time>
      </trkpt>
      <trkpt lat="45.60761" lon="3.14832">
        <ele>536.4957</ele>
        <time>2012-07-18T08:34:47Z</time>
      </trkpt>
      <trkpt lat="45.60743" lon="3.14824">
        <ele>537.7008</ele>
        <time>2012-07-18T08:35:01Z</time>
      </trkpt>
      <trkpt lat="45.60726" lon="3.14816">
        <ele>539.7027</ele>
        <time>2012-07-18T08:35:14Z</time>
      </trkpt>
      <trkpt lat="45.60708" lon="3.14809">
        <ele>541.6215</ele>
        <time>2012-07-18T08:35:27Z</time>
      </trkpt>
      <trkpt lat="45.6069" lon="3.14801">
        <ele>543.1555</ele>
        <time>2012-07-18T08:35:43Z</time>
      </trkpt>
      <trkpt lat="45.60672" lon="3.14794">
        <ele>545.4771</ele>
        <time>2012-07-18T08:35:59Z</time>
      </trkpt>
      <trkpt lat="45.60654" lon="3.14788">
        <ele>547.3353</ele>
        <time>2012-07-18T08:36:16Z</time>
      </trkpt>
      <trkpt lat="45.60635" lon="3.14786">
        <ele>549.2321</ele>
        <time>2012-07-18T08:36:30Z</time>
      </trkpt>
      <trkpt lat="45.60617" lon="3.14782">
        <ele>551.45483</ele>
        <time>2012-07-18T08:36:44Z</time>
      </trkpt>
      <trkpt lat="45.60598" lon="3.1478">
        <ele>552.6661</ele>
        <time>2012-07-18T08:36:56Z</time>
      </trkpt>
      <trkpt lat="45.6058" lon="3.14776">
        <ele>553.5776</ele>
        <time>2012-07-18T08:37:08Z</time>
      </trkpt>
      <trkpt lat="45.60561" lon="3.14772">
        <ele>554.8251</ele>
        <time>2012-07-18T08:37:21Z</time>
      </trkpt>
      <trkpt lat="45.60542" lon="3.14766">
        <ele>555.8469</ele>
        <time>2012-07-18T08:37:35Z</time>
      </trkpt>
      <trkpt lat="45.60523" lon="3.14763">
        <ele>557.8688</ele>
        <time>2012-07-18T08:37:50Z</time>
      </trkpt>
      <trkpt lat="45.60504" lon="3.14759">
        <ele>559.9843</ele>
        <time>2012-07-18T08:38:04Z</time>
      </trkpt>
      <trkpt lat="45.60485" lon="3.14755">
        <ele>561.3166</ele>
        <time>2012-07-18T08:38:18Z</time>
      </trkpt>
      <trkpt lat="45.60467" lon="3.14753">
        <ele>563.85065</ele>
        <time>2012-07-18T08:38:32Z</time>
      </trkpt>
      <trkpt lat="45.60447" lon="3.14749">
        <ele>566.312</ele>
        <time>2012-07-18T08:38:47Z</time>
      </trkpt>
      <trkpt lat="45.60429" lon="3.14748">
        <ele>568.0588</ele>
        <time>2012-07-18T08:39:02Z</time>
      </trkpt>
      <trkpt lat="45.6041" lon="3.14744">
        <ele>569.94464</ele>
        <time>2012-07-18T08:39:13Z</time>
      </trkpt>
      <trkpt lat="45.60391" lon="3.14742">
        <ele>569.80853</ele>
        <time>2012-07-18T08:39:26Z</time>
      </trkpt>
      <trkpt lat="45.60373" lon="3.14739">
        <ele>570.23663</ele>
        <time>2012-07-18T08:39:37Z</time>
      </trkpt>
      <trkpt lat="45.60355" lon="3.14735">
        <ele>570.2879</ele>
        <time>2012-07-18T08:39:46Z</time>
      </trkpt>
      <trkpt lat="45.60336" lon="3.14731">
        <ele>570.76715</ele>
        <time>2012-07-18T08:39:57Z</time>
      </trkpt>
      <trkpt lat="45.60317" lon="3.14725">
        <ele>571.7006</ele>
        <time>2012-07-18T08:40:08Z</time>
      </trkpt>
      <trkpt lat="45.60299" lon="3.1472">
        <ele>573.06506</ele>
        <time>2012-07-18T08:40:20Z</time>
      </trkpt>
      <trkpt lat="45.60281" lon="3.14717">
        <ele>573.8643</ele>
        <time>2012-07-18T08:40:31Z</time>
      </trkpt>
      <trkpt lat="45.60263" lon="3.14713">
        <ele>573.9285</ele>
        <time>2012-07-18T08:40:42Z</time>
      </trkpt>
      <trkpt lat="45.60243" lon="3.14707">
        <ele>574.9979</ele>
        <time>2012-07-18T08:40:52Z</time>
      </trkpt>
      <trkpt lat="45.60224" lon="3.14703">
        <ele>576.74677</ele>
        <time>2012-07-18T08:41:02Z</time>
      </trkpt>
      <trkpt lat="45.60206" lon="3.14701">
        <ele>579.737</ele>
        <time>2012-07-18T08:41:15Z</time>
      </trkpt>
      <trkpt lat="45.60188" lon="3.14697">
        <ele>580.35547</ele>
        <time>2012-07-18T08:41:29Z</time>
      </trkpt>
      <trkpt lat="45.6017" lon="3.14692">
        <ele>581.63403</ele>
        <time>2012-07-18T08:41:42Z</time>
      </trkpt>
      <trkpt lat="45.60151" lon="3.14691">
        <ele>583.9432</ele>
        <time>2012-07-18T08:41:56Z</time>
      </trkpt>
      <trkpt lat="45.60132" lon="3.14694">
        <ele>584.8159</ele>
        <time>2012-07-18T08:42:12Z</time>
      </trkpt>
      <trkpt lat="45.60113" lon="3.14695">
        <ele>585.0694</ele>
        <time>2012-07-18T08:42:25Z</time>
      </trkpt>
      <trkpt lat="45.60095" lon="3.14701">
        <ele>585.55286</ele>
        <time>2012-07-18T08:42:47Z</time>
      </trkpt>
      <trkpt lat="45.60078" lon="3.14711">
        <ele>585.3404</ele>
        <time>2012-07-18T08:42:58Z</time>
      </trkpt>
      <trkpt lat="45.60059" lon="3.14717">
        <ele>586.4535</ele>
        <time>2012-07-18T08:43:08Z</time>
      </trkpt>
      <trkpt lat="45.60041" lon="3.14727">
        <ele>587.58124</ele>
        <time>2012-07-18T08:43:18Z</time>
      </trkpt>
      <trkpt lat="45.60023" lon="3.14738">
        <ele>587.79065</ele>
        <time>2012-07-18T08:43:27Z</time>
      </trkpt>
      <trkpt lat="45.60006" lon="3.14747">
        <ele>587.67755</ele>
        <time>2012-07-18T08:43:36Z</time>
      </trkpt>
      <trkpt lat="45.59987" lon="3.14756">
        <ele>588.6276</ele>
        <time>2012-07-18T08:43:46Z</time>
      </trkpt>
      <trkpt lat="45.5997" lon="3.14768">
        <ele>589.77997</ele>
        <time>2012-07-18T08:43:55Z</time>
      </trkpt>
      <trkpt lat="45.59953" lon="3.14778">
        <ele>590.03564</ele>
        <time>2012-07-18T08:44:05Z</time>
      </trkpt>
      <trkpt lat="45.59935" lon="3.14787">
        <ele>590.5834</ele>
        <time>2012-07-18T08:44:15Z</time>
      </trkpt>
      <trkpt lat="45.59918" lon="3.14795">
        <ele>591.813</ele>
        <time>2012-07-18T08:44:23Z</time>
      </trkpt>
      <trkpt lat="45.59901" lon="3.14806">
        <ele>592.3602</ele>
        <time>2012-07-18T08:44:32Z</time>
      </trkpt>
      <trkpt lat="45.59883" lon="3.14815">
        <ele>592.7069</ele>
        <time>2012-07-18T08:44:40Z</time>
      </trkpt>
      <trkpt lat="45.59864" lon="3.14824">
        <ele>592.83075</ele>
        <time>2012-07-18T08:44:49Z</time>
      </trkpt>
      <trkpt lat="45.59846" lon="3.14834">
        <ele>592.242</ele>
        <time>2012-07-18T08:44:57Z</time>
      </trkpt>
      <trkpt lat="45.59828" lon="3.14843">
        <ele>593.84174</ele>
        <time>2012-07-18T08:45:06Z</time>
      </trkpt>
      <trkpt lat="45.5981" lon="3.14854">
        <ele>595.1557</ele>
        <time>2012-07-18T08:45:16Z</time>
      </trkpt>
      <trkpt lat="45.59793" lon="3.1486">
        <ele>596.1728</ele>
        <time>2012-07-18T08:45:26Z</time>
      </trkpt>
      <trkpt lat="45.59773" lon="3.14868">
        <ele>596.5882</ele>
        <time>2012-07-18T08:47:53Z</time>
      </trkpt>
      <trkpt lat="45.59755" lon="3.14873">
        <ele>596.7152</ele>
        <time>2012-07-18T08:48:03Z</time>
      </trkpt>
      <trkpt lat="45.59735" lon="3.14877">
        <ele>597.3481</ele>
        <time>2012-07-18T08:48:13Z</time>
      </trkpt>
      <trkpt lat="45.59716" lon="3.14882">
        <ele>598.2261</ele>
        <time>2012-07-18T08:48:22Z</time>
      </trkpt>
      <trkpt lat="45.59697" lon="3.14886">
        <ele>597.68567</ele>
        <time>2012-07-18T08:48:31Z</time>
      </trkpt>
      <trkpt lat="45.59677" lon="3.1489">
        <ele>597.15735</ele>
        <time>2012-07-18T08:48:39Z</time>
      </trkpt>
      <trkpt lat="45.59658" lon="3.14894">
        <ele>597.17096</ele>
        <time>2012-07-18T08:48:46Z</time>
      </trkpt>
      <trkpt lat="45.59639" lon="3.14899">
        <ele>597.0017</ele>
        <time>2012-07-18T08:48:52Z</time>
      </trkpt>
      <trkpt lat="45.59622" lon="3.14903">
        <ele>595.92004</ele>
        <time>2012-07-18T08:48:58Z</time>
      </trkpt>
      <trkpt lat="45.59601" lon="3.14907">
        <ele>594.6818</ele>
        <time>2012-07-18T08:49:04Z</time>
      </trkpt>
      <trkpt lat="45.59582" lon="3.14911">
        <ele>593.2935</ele>
        <time>2012-07-18T08:49:09Z</time>
      </trkpt>
      <trkpt lat="45.5956" lon="3.14911">
        <ele>591.87396</ele>
        <time>2012-07-18T08:49:15Z</time>
      </trkpt>
      <trkpt lat="45.59537" lon="3.14904">
        <ele>590.4327</ele>
        <time>2012-07-18T08:49:20Z</time>
      </trkpt>
      <trkpt lat="45.59517" lon="3.14896">
        <ele>589.19507</ele>
        <time>2012-07-18T08:49:25Z</time>
      </trkpt>
      <trkpt lat="45.59496" lon="3.14889">
        <ele>588.4945</ele>
        <time>2012-07-18T08:49:29Z</time>
      </trkpt>
      <trkpt lat="45.59478" lon="3.14882">
        <ele>587.8321</ele>
        <time>2012-07-18T08:49:32Z</time>
      </trkpt>
      <trkpt lat="45.59459" lon="3.14876">
        <ele>587.00415</ele>
        <time>2012-07-18T08:49:35Z</time>
      </trkpt>
      <trkpt lat="45.5944" lon="3.14869">
        <ele>585.958</ele>
        <time>2012-07-18T08:49:38Z</time>
      </trkpt>
      <trkpt lat="45.5942" lon="3.14861">
        <ele>584.601</ele>
        <time>2012-07-18T08:49:41Z</time>
      </trkpt>
      <trkpt lat="45.59401" lon="3.14846">
        <ele>583.34265</ele>
        <time>2012-07-18T08:49:44Z</time>
      </trkpt>
      <trkpt lat="45.59383" lon="3.14824">
        <ele>581.5412</ele>
        <time>2012-07-18T08:49:48Z</time>
      </trkpt>
      <trkpt lat="45.59366" lon="3.14804">
        <ele>579.98145</ele>
        <time>2012-07-18T08:49:51Z</time>
      </trkpt>
      <trkpt lat="45.5935" lon="3.1478">
        <ele>578.6141</ele>
        <time>2012-07-18T08:49:54Z</time>
      </trkpt>
      <trkpt lat="45.59334" lon="3.14754">
        <ele>577.40594</ele>
        <time>2012-07-18T08:49:57Z</time>
      </trkpt>
      <trkpt lat="45.59319" lon="3.14733">
        <ele>575.4556</ele>
        <time>2012-07-18T08:49:59Z</time>
      </trkpt>
      <trkpt lat="45.59306" lon="3.14711">
        <ele>574.3938</ele>
        <time>2012-07-18T08:50:02Z</time>
      </trkpt>
      <trkpt lat="45.59292" lon="3.14682">
        <ele>572.9349</ele>
        <time>2012-07-18T08:50:05Z</time>
      </trkpt>
      <trkpt lat="45.59281" lon="3.14648">
        <ele>571.3835</ele>
        <time>2012-07-18T08:50:08Z</time>
      </trkpt>
      <trkpt lat="45.59277" lon="3.14622">
        <ele>570.1657</ele>
        <time>2012-07-18T08:50:10Z</time>
      </trkpt>
      <trkpt lat="45.59274" lon="3.14585">
        <ele>568.25116</ele>
        <time>2012-07-18T08:50:13Z</time>
      </trkpt>
      <trkpt lat="45.59268" lon="3.14552">
        <ele>566.21844</ele>
        <time>2012-07-18T08:50:16Z</time>
      </trkpt>
      <trkpt lat="45.59259" lon="3.14521">
        <ele>564.2344</ele>
        <time>2012-07-18T08:50:19Z</time>
      </trkpt>
      <trkpt lat="45.59244" lon="3.1449">
        <ele>562.4395</ele>
        <time>2012-07-18T08:50:22Z</time>
      </trkpt>
      <trkpt lat="45.59231" lon="3.14465">
        <ele>561.2222</ele>
        <time>2012-07-18T08:50:24Z</time>
      </trkpt>
      <trkpt lat="45.59217" lon="3.14444">
        <ele>559.8125</ele>
        <time>2012-07-18T08:50:27Z</time>
      </trkpt>
      <trkpt lat="45.59194" lon="3.14421">
        <ele>558.4943</ele>
        <time>2012-07-18T08:50:30Z</time>
      </trkpt>
      <trkpt lat="45.59177" lon="3.1441">
        <ele>557.57184</ele>
        <time>2012-07-18T08:50:32Z</time>
      </trkpt>
      <trkpt lat="45.59159" lon="3.14401">
        <ele>556.2928</ele>
        <time>2012-07-18T08:50:34Z</time>
      </trkpt>
      <trkpt lat="45.59141" lon="3.14386">
        <ele>555.1657</ele>
        <time>2012-07-18T08:50:38Z</time>
      </trkpt>
      <trkpt lat="45.59131" lon="3.14365">
        <ele>553.473</ele>
        <time>2012-07-18T08:50:43Z</time>
      </trkpt>
      <trkpt lat="45.59132" lon="3.14339">
        <ele>550.3895</ele>
        <time>2012-07-18T08:51:03Z</time>
      </trkpt>
      <trkpt lat="45.59137" lon="3.14314">
        <ele>549.09515</ele>
        <time>2012-07-18T08:51:08Z</time>
      </trkpt>
      <trkpt lat="45.59143" lon="3.14283">
        <ele>547.5719</ele>
        <time>2012-07-18T08:51:13Z</time>
      </trkpt>
      <trkpt lat="45.59149" lon="3.14255">
        <ele>546.6569</ele>
        <time>2012-07-18T08:51:16Z</time>
      </trkpt>
      <trkpt lat="45.59154" lon="3.14222">
        <ele>545.31934</ele>
        <time>2012-07-18T08:51:19Z</time>
      </trkpt>
      <trkpt lat="45.5916" lon="3.14186">
        <ele>543.7441</ele>
        <time>2012-07-18T08:51:22Z</time>
      </trkpt>
      <trkpt lat="45.59164" lon="3.14159">
        <ele>542.6123</ele>
        <time>2012-07-18T08:51:24Z</time>
      </trkpt>
      <trkpt lat="45.59166" lon="3.14131">
        <ele>541.23816</ele>
        <time>2012-07-18T08:51:26Z</time>
      </trkpt>
      <trkpt lat="45.59167" lon="3.14102">
        <ele>539.6402</ele>
        <time>2012-07-18T08:51:28Z</time>
      </trkpt>
      <trkpt lat="45.59167" lon="3.14072">
        <ele>538.0414</ele>
        <time>2012-07-18T08:51:30Z</time>
      </trkpt>
      <trkpt lat="45.59165" lon="3.14029">
        <ele>536.3108</ele>
        <time>2012-07-18T08:51:33Z</time>
      </trkpt>
      <trkpt lat="45.59161" lon="3.13996">
        <ele>534.83105</ele>
        <time>2012-07-18T08:51:35Z</time>
      </trkpt>
      <trkpt lat="45.59157" lon="3.13963">
        <ele>533.27374</ele>
        <time>2012-07-18T08:51:37Z</time>
      </trkpt>
      <trkpt lat="45.59151" lon="3.13932">
        <ele>531.60394</ele>
        <time>2012-07-18T08:51:39Z</time>
      </trkpt>
      <trkpt lat="45.59142" lon="3.13901">
        <ele>529.93976</ele>
        <time>2012-07-18T08:51:41Z</time>
      </trkpt>
      <trkpt lat="45.59132" lon="3.13869">
        <ele>528.09735</ele>
        <time>2012-07-18T08:51:43Z</time>
      </trkpt>
      <trkpt lat="45.59121" lon="3.13836">
        <ele>526.0235</ele>
        <time>2012-07-18T08:51:45Z</time>
      </trkpt>
      <trkpt lat="45.59111" lon="3.13805">
        <ele>523.8445</ele>
        <time>2012-07-18T08:51:47Z</time>
      </trkpt>
      <trkpt lat="45.59099" lon="3.13769">
        <ele>521.6875</ele>
        <time>2012-07-18T08:51:49Z</time>
      </trkpt>
      <trkpt lat="45.59088" lon="3.13733">
        <ele>519.46796</ele>
        <time>2012-07-18T08:51:51Z</time>
      </trkpt>
      <trkpt lat="45.59075" lon="3.13693">
        <ele>517.20074</ele>
        <time>2012-07-18T08:51:53Z</time>
      </trkpt>
      <trkpt lat="45.59064" lon="3.13655">
        <ele>514.81915</ele>
        <time>2012-07-18T08:51:55Z</time>
      </trkpt>
      <trkpt lat="45.59053" lon="3.13616">
        <ele>512.3858</ele>
        <time>2012-07-18T08:51:57Z</time>
      </trkpt>
      <trkpt lat="45.59041" lon="3.13578">
        <ele>509.9545</ele>
        <time>2012-07-18T08:51:59Z</time>
      </trkpt>
      <trkpt lat="45.59027" lon="3.13543">
        <ele>507.98065</ele>
        <time>2012-07-18T08:52:01Z</time>
      </trkpt>
      <trkpt lat="45.59016" lon="3.13521">
        <ele>506.65787</ele>
        <time>2012-07-18T08:52:02Z</time>
      </trkpt>
      <trkpt lat="45.59003" lon="3.13502">
        <ele>506.2684</ele>
        <time>2012-07-18T08:52:04Z</time>
      </trkpt>
      <trkpt lat="45.58984" lon="3.13481">
        <ele>505.826</ele>
        <time>2012-07-18T08:52:06Z</time>
      </trkpt>
      <trkpt lat="45.58965" lon="3.13465">
        <ele>505.6271</ele>
        <time>2012-07-18T08:52:08Z</time>
      </trkpt>
      <trkpt lat="45.58948" lon="3.13451">
        <ele>505.634</ele>
        <time>2012-07-18T08:52:10Z</time>
      </trkpt>
      <trkpt lat="45.58927" lon="3.13433">
        <ele>505.84558</ele>
        <time>2012-07-18T08:52:13Z</time>
      </trkpt>
      <trkpt lat="45.58907" lon="3.13419">
        <ele>506.76767</ele>
        <time>2012-07-18T08:52:16Z</time>
      </trkpt>
      <trkpt lat="45.58891" lon="3.13405">
        <ele>508.04416</ele>
        <time>2012-07-18T08:52:19Z</time>
      </trkpt>
      <trkpt lat="45.58874" lon="3.13388">
        <ele>508.3632</ele>
        <time>2012-07-18T08:52:23Z</time>
      </trkpt>
      <trkpt lat="45.58857" lon="3.1337">
        <ele>508.80865</ele>
        <time>2012-07-18T08:52:27Z</time>
      </trkpt>
      <trkpt lat="45.5885" lon="3.13346">
        <ele>508.41928</ele>
        <time>2012-07-18T08:52:30Z</time>
      </trkpt>
      <trkpt lat="45.58846" lon="3.1332">
        <ele>507.6003</ele>
        <time>2012-07-18T08:52:33Z</time>
      </trkpt>
      <trkpt lat="45.58847" lon="3.1329">
        <ele>506.36493</ele>
        <time>2012-07-18T08:52:37Z</time>
      </trkpt>
      <trkpt lat="45.58854" lon="3.1326">
        <ele>505.4268</ele>
        <time>2012-07-18T08:52:41Z</time>
      </trkpt>
      <trkpt lat="45.58864" lon="3.13235">
        <ele>504.5862</ele>
        <time>2012-07-18T08:52:45Z</time>
      </trkpt>
      <trkpt lat="45.58876" lon="3.13207">
        <ele>504.11908</ele>
        <time>2012-07-18T08:52:49Z</time>
      </trkpt>
      <trkpt lat="45.58887" lon="3.13181">
        <ele>503.63416</ele>
        <time>2012-07-18T08:52:53Z</time>
      </trkpt>
      <trkpt lat="45.58901" lon="3.13157">
        <ele>503.13486</ele>
        <time>2012-07-18T08:52:58Z</time>
      </trkpt>
      <trkpt lat="45.58913" lon="3.13136">
        <ele>503.18994</ele>
        <time>2012-07-18T08:53:02Z</time>
      </trkpt>
      <trkpt lat="45.58925" lon="3.13114">
        <ele>503.70892</ele>
        <time>2012-07-18T08:53:06Z</time>
      </trkpt>
      <trkpt lat="45.58931" lon="3.13084">
        <ele>504.12555</ele>
        <time>2012-07-18T08:53:11Z</time>
      </trkpt>
      <trkpt lat="45.58934" lon="3.13051">
        <ele>503.51953</ele>
        <time>2012-07-18T08:53:16Z</time>
      </trkpt>
      <trkpt lat="45.58933" lon="3.13024">
        <ele>503.4336</ele>
        <time>2012-07-18T08:53:22Z</time>
      </trkpt>
      <trkpt lat="45.58923" lon="3.13001">
        <ele>504.00632</ele>
        <time>2012-07-18T08:53:26Z</time>
      </trkpt>
      <trkpt lat="45.5891" lon="3.12979">
        <ele>504.4643</ele>
        <time>2012-07-18T08:53:31Z</time>
      </trkpt>
      <trkpt lat="45.58892" lon="3.12963">
        <ele>503.92288</ele>
        <time>2012-07-18T08:53:36Z</time>
      </trkpt>
      <trkpt lat="45.58873" lon="3.12954">
        <ele>504.61383</ele>
        <time>2012-07-18T08:53:41Z</time>
      </trkpt>
      <trkpt lat="45.58855" lon="3.1294">
        <ele>512.02246</ele>
        <time>2012-07-18T08:53:47Z</time>
      </trkpt>
      <trkpt lat="45.58837" lon="3.12928">
        <ele>515.1247</ele>
        <time>2012-07-18T08:53:51Z</time>
      </trkpt>
      <trkpt lat="45.58816" lon="3.12919">
        <ele>515.125</ele>
        <time>2012-07-18T08:53:55Z</time>
      </trkpt>
      <trkpt lat="45.58794" lon="3.12914">
        <ele>513.74426</ele>
        <time>2012-07-18T08:53:58Z</time>
      </trkpt>
      <trkpt lat="45.58775" lon="3.12899">
        <ele>510.31946</ele>
        <time>2012-07-18T08:54:04Z</time>
      </trkpt>
      <trkpt lat="45.58762" lon="3.12877">
        <ele>508.76178</ele>
        <time>2012-07-18T08:54:10Z</time>
      </trkpt>
      <trkpt lat="45.58753" lon="3.12852">
        <ele>508.85706</ele>
        <time>2012-07-18T08:54:14Z</time>
      </trkpt>
      <trkpt lat="45.58733" lon="3.12844">
        <ele>509.3687</ele>
        <time>2012-07-18T08:54:20Z</time>
      </trkpt>
      <trkpt lat="45.58717" lon="3.12824">
        <ele>508.72562</ele>
        <time>2012-07-18T08:54:27Z</time>
      </trkpt>
      <trkpt lat="45.58697" lon="3.12819">
        <ele>507.59906</ele>
        <time>2012-07-18T08:54:32Z</time>
      </trkpt>
      <trkpt lat="45.58683" lon="3.12797">
        <ele>507.66714</ele>
        <time>2012-07-18T08:54:37Z</time>
      </trkpt>
      <trkpt lat="45.58665" lon="3.12788">
        <ele>507.85538</ele>
        <time>2012-07-18T08:54:42Z</time>
      </trkpt>
      <trkpt lat="45.58649" lon="3.12773">
        <ele>506.47116</ele>
        <time>2012-07-18T08:54:47Z</time>
      </trkpt>
      <trkpt lat="45.58629" lon="3.12762">
        <ele>504.70096</ele>
        <time>2012-07-18T08:54:54Z</time>
      </trkpt>
      <trkpt lat="45.58612" lon="3.12747">
        <ele>504.755</ele>
        <time>2012-07-18T08:54:59Z</time>
      </trkpt>
      <trkpt lat="45.58595" lon="3.12735">
        <ele>511.3804</ele>
        <time>2012-07-18T08:55:10Z</time>
      </trkpt>
      <trkpt lat="45.58572" lon="3.12726">
        <ele>521.8754</ele>
        <time>2012-07-18T08:57:15Z</time>
      </trkpt>
    </trkseg>
  </trk>
</gpx>